Wetterdaten: Samstag, 12.12.2020
Datum Zeit Temp. Aussen Temp. o. S. Temp +5cm Feuchte Auss Luftdruck Regen Sonnenschein Regendauer Solar Windben Empfang
12.12.2020 00:00 3,7 C 3,3 C 2,2 C 98 % 991,6 hPa 0,0 l/m 0 min 0 min 0 W/m 12,9 km/h (3 Bft) 100,00 %
12.12.2020 00:02 3,8 C 3,3 C 2,2 C 98 % 991,7 hPa 0,0 l/m 0 min 0 min 0 W/m 6,4 km/h (2 Bft) 100,00 %
12.12.2020 00:04 3,8 C 3,3 C 2,2 C 98 % 991,7 hPa 0,0 l/m 0 min 0 min 0 W/m 6,4 km/h (2 Bft) 100,00 %
12.12.2020 00:08 3,7 C 3,3 C 2,2 C 98 % 991,6 hPa 0,0 l/m 0 min 0 min 0 W/m 12,9 km/h (3 Bft) 100,00 %
12.12.2020 00:10 3,8 C 3,3 C 2,2 C 98 % 991,6 hPa 0,0 l/m 0 min 0 min 0 W/m 6,4 km/h (2 Bft) 100,00 %
12.12.2020 00:12 3,8 C 3,3 C 2,2 C 98 % 991,7 hPa 0,0 l/m 0 min 0 min 0 W/m 12,9 km/h (3 Bft) 100,00 %
12.12.2020 00:14 3,8 C 3,3 C 2,2 C 98 % 991,7 hPa 0,0 l/m 0 min 0 min 0 W/m 12,9 km/h (3 Bft) 100,00 %
12.12.2020 00:16 3,8 C 3,3 C 2,2 C 98 % 991,7 hPa 0,0 l/m 0 min 0 min 0 W/m 12,9 km/h (3 Bft) 100,00 %
12.12.2020 00:18 3,8 C 3,3 C 2,2 C 98 % 991,7 hPa 0,0 l/m 0 min 0 min 0 W/m 3,2 km/h (1 Bft) 100,00 %
12.12.2020 00:20 3,8 C 3,3 C 2,2 C 98 % 991,7 hPa 0,0 l/m 0 min 0 min 0 W/m 6,4 km/h (2 Bft) 100,00 %
12.12.2020 00:22 3,8 C 3,3 C 2,2 C 98 % 991,7 hPa 0,0 l/m 0 min 0 min 0 W/m 6,4 km/h (2 Bft) 97,87 %
12.12.2020 00:24 3,8 C 3,3 C 2,2 C 98 % 991,7 hPa 0,0 l/m 0 min 0 min 0 W/m 6,4 km/h (2 Bft) 100,00 %
12.12.2020 00:26 3,8 C 3,3 C 2,2 C 98 % 991,7 hPa 0,0 l/m 0 min 0 min 0 W/m 6,4 km/h (2 Bft) 97,87 %
12.12.2020 00:28 3,8 C 3,3 C 2,7 C 98 % 991,8 hPa 0,0 l/m 0 min 0 min 0 W/m 0,0 km/h (0 Bft) 100,00 %
12.12.2020 00:30 3,9 C 3,3 C 2,7 C 98 % 991,8 hPa 0,0 l/m 0 min 0 min 0 W/m 3,2 km/h (1 Bft) 97,83 %
12.12.2020 00:32 3,9 C 3,3 C 2,7 C 98 % 991,8 hPa 0,0 l/m 0 min 0 min 0 W/m 6,4 km/h (2 Bft) 100,00 %
12.12.2020 00:34 3,9 C 3,3 C 2,7 C 98 % 991,8 hPa 0,0 l/m 0 min 0 min 0 W/m 3,2 km/h (1 Bft) 100,00 %
12.12.2020 00:36 3,9 C 3,3 C 2,7 C 98 % 991,9 hPa 0,0 l/m 0 min 0 min 0 W/m 12,9 km/h (3 Bft) 100,00 %
12.12.2020 00:38 3,9 C 3,3 C 2,7 C 98 % 991,9 hPa 0,0 l/m 0 min 0 min 0 W/m 12,9 km/h (3 Bft) 100,00 %
12.12.2020 00:40 3,9 C 3,3 C 2,7 C 98 % 991,9 hPa 0,0 l/m 0 min 0 min 0 W/m 12,9 km/h (3 Bft) 100,00 %
12.12.2020 00:42 3,9 C 3,3 C 2,7 C 98 % 991,8 hPa 0,0 l/m 0 min 0 min 0 W/m 9,7 km/h (2 Bft) 100,00 %
12.12.2020 00:44 3,9 C 3,3 C 2,7 C 98 % 991,9 hPa 0,0 l/m 0 min 0 min 0 W/m 0,0 km/h (0 Bft) 100,00 %
12.12.2020 00:46 3,9 C 3,3 C 2,7 C 98 % 991,9 hPa 0,0 l/m 0 min 0 min 0 W/m 16,1 km/h (3 Bft) 100,00 %
12.12.2020 00:48 4,0 C 3,3 C 2,7 C 98 % 991,8 hPa 0,0 l/m 0 min 0 min 0 W/m 6,4 km/h (2 Bft) 100,00 %
12.12.2020 00:50 4,0 C 3,3 C 2,7 C 98 % 991,8 hPa 0,0 l/m 0 min 0 min 0 W/m 3,2 km/h (1 Bft) 95,74 %
12.12.2020 00:52 4,0 C 3,3 C 2,7 C 98 % 991,9 hPa 0,0 l/m 0 min 0 min 0 W/m 6,4 km/h (2 Bft) 100,00 %
12.12.2020 00:54 4,0 C 3,3 C 2,7 C 98 % 991,9 hPa 0,0 l/m 0 min 0 min 0 W/m 3,2 km/h (1 Bft) 100,00 %
12.12.2020 00:56 4,0 C 3,3 C 2,7 C 98 % 991,9 hPa 0,0 l/m 0 min 0 min 0 W/m 6,4 km/h (2 Bft) 100,00 %
12.12.2020 00:58 4,0 C 3,3 C 2,7 C 98 % 991,9 hPa 0,0 l/m 0 min 0 min 0 W/m 3,2 km/h (1 Bft) 97,87 %
12.12.2020 01:00 4,0 C 3,3 C 2,7 C 98 % 991,9 hPa 0,0 l/m 0 min 0 min 0 W/m 12,9 km/h (3 Bft) 97,87 %
12.12.2020 01:02 4,0 C 3,3 C 2,7 C 98 % 991,9 hPa 0,0 l/m 0 min 0 min 0 W/m 12,9 km/h (3 Bft) 100,00 %
12.12.2020 01:04 4,0 C 3,3 C 2,7 C 98 % 991,9 hPa 0,0 l/m 0 min 0 min 0 W/m 16,1 km/h (3 Bft) 100,00 %
12.12.2020 01:06 4,1 C 3,3 C 2,7 C 98 % 991,9 hPa 0,0 l/m 0 min 0 min 0 W/m 6,4 km/h (2 Bft) 100,00 %
12.12.2020 01:08 4,1 C 3,3 C 2,7 C 98 % 991,8 hPa 0,0 l/m 0 min 0 min 0 W/m 6,4 km/h (2 Bft) 100,00 %
12.12.2020 01:10 4,1 C 3,3 C 2,7 C 98 % 991,8 hPa 0,0 l/m 0 min 0 min 0 W/m 6,4 km/h (2 Bft) 97,87 %
12.12.2020 01:12 4,1 C 3,3 C 2,7 C 98 % 991,8 hPa 0,0 l/m 0 min 0 min 0 W/m 3,2 km/h (1 Bft) 100,00 %
12.12.2020 01:14 4,1 C 3,3 C 2,7 C 98 % 991,9 hPa 0,0 l/m 0 min 0 min 0 W/m 3,2 km/h (1 Bft) 97,87 %
12.12.2020 01:16 4,1 C 3,3 C 2,7 C 98 % 991,9 hPa 0,0 l/m 0 min 0 min 0 W/m 6,4 km/h (2 Bft) 97,87 %
12.12.2020 01:18 4,1 C 3,3 C 2,7 C 98 % 991,9 hPa 0,0 l/m 0 min 0 min 0 W/m 12,9 km/h (3 Bft) 97,83 %
12.12.2020 01:20 4,1 C 3,3 C 2,7 C 98 % 991,9 hPa 0,0 l/m 0 min 0 min 0 W/m 12,9 km/h (3 Bft) 97,87 %
12.12.2020 01:22 4,1 C 3,3 C 2,7 C 98 % 991,9 hPa 0,0 l/m 0 min 0 min 0 W/m 6,4 km/h (2 Bft) 95,74 %
12.12.2020 01:24 4,2 C 3,3 C 2,7 C 98 % 991,9 hPa 0,0 l/m 0 min 0 min 0 W/m 16,1 km/h (3 Bft) 95,74 %
12.12.2020 01:26 4,2 C 3,3 C 2,7 C 98 % 991,9 hPa 0,0 l/m 0 min 0 min 0 W/m 6,4 km/h (2 Bft) 97,87 %
12.12.2020 01:28 4,2 C 3,3 C 2,7 C 98 % 992,0 hPa 0,0 l/m 0 min 0 min 0 W/m 16,1 km/h (3 Bft) 97,87 %
12.12.2020 01:30 4,3 C 3,3 C 2,7 C 98 % 991,9 hPa 0,0 l/m 0 min 0 min 0 W/m 9,7 km/h (2 Bft) 97,83 %
12.12.2020 01:32 4,3 C 3,3 C 2,7 C 98 % 991,9 hPa 0,0 l/m 0 min 0 min 0 W/m 6,4 km/h (2 Bft) 97,87 %
12.12.2020 01:34 4,3 C 3,3 C 2,7 C 98 % 992,0 hPa 0,0 l/m 0 min 0 min 0 W/m 3,2 km/h (1 Bft) 97,87 %
12.12.2020 01:36 4,3 C 3,3 C 2,7 C 98 % 992,0 hPa 0,0 l/m 0 min 0 min 0 W/m 12,9 km/h (3 Bft) 97,87 %
12.12.2020 01:38 4,3 C 3,3 C 2,7 C 98 % 992,0 hPa 0,0 l/m 0 min 0 min 0 W/m 3,2 km/h (1 Bft) 97,87 %
12.12.2020 01:40 4,3 C 3,3 C 2,7 C 98 % 992,0 hPa 0,0 l/m 0 min 0 min 0 W/m 12,9 km/h (3 Bft) 95,74 %
12.12.2020 01:42 4,3 C 3,3 C 2,7 C 98 % 992,0 hPa 0,0 l/m 0 min 0 min 0 W/m 16,1 km/h (3 Bft) 97,83 %
12.12.2020 01:44 4,3 C 3,3 C 2,7 C 98 % 992,0 hPa 0,0 l/m 0 min 0 min 0 W/m 16,1 km/h (3 Bft) 97,87 %
12.12.2020 01:46 4,3 C 3,3 C 2,7 C 98 % 992,0 hPa 0,0 l/m 0 min 0 min 0 W/m 12,9 km/h (3 Bft) 95,74 %
12.12.2020 01:48 4,3 C 3,3 C 2,7 C 98 % 992,0 hPa 0,0 l/m 0 min 0 min 0 W/m 12,9 km/h (3 Bft) 97,87 %
12.12.2020 01:50 4,3 C 3,3 C 2,7 C 98 % 992,1 hPa 0,0 l/m 0 min 0 min 0 W/m 6,4 km/h (2 Bft) 97,87 %
12.12.2020 01:52 4,3 C 3,3 C 2,7 C 98 % 992,1 hPa 0,0 l/m 0 min 0 min 0 W/m 3,2 km/h (1 Bft) 97,83 %
12.12.2020 01:54 4,3 C 3,3 C 2,7 C 98 % 992,1 hPa 0,0 l/m 0 min 0 min 0 W/m 6,4 km/h (2 Bft) 97,87 %
12.12.2020 01:56 4,3 C 3,3 C 2,7 C 98 % 992,1 hPa 0,0 l/m 0 min 0 min 0 W/m 12,9 km/h (3 Bft) 95,74 %
12.12.2020 01:58 4,3 C 3,3 C 2,7 C 98 % 992,1 hPa 0,0 l/m 0 min 0 min 0 W/m 12,9 km/h (3 Bft) 97,87 %
12.12.2020 02:00 4,3 C 3,9 C 2,7 C 98 % 992,1 hPa 0,0 l/m 0 min 0 min 0 W/m 3,2 km/h (1 Bft) 97,87 %
12.12.2020 02:02 4,3 C 3,9 C 2,7 C 98 % 992,1 hPa 0,0 l/m 0 min 0 min 0 W/m 12,9 km/h (3 Bft) 97,87 %
12.12.2020 02:04 4,3 C 3,9 C 2,7 C 98 % 992,1 hPa 0,0 l/m 0 min 0 min 0 W/m 6,4 km/h (2 Bft) 97,83 %
12.12.2020 02:06 4,3 C 3,9 C 2,7 C 98 % 992,2 hPa 0,0 l/m 0 min 0 min 0 W/m 0,0 km/h (0 Bft) 97,87 %
12.12.2020 02:08 4,3 C 3,9 C 2,7 C 98 % 992,1 hPa 0,0 l/m 0 min 0 min 0 W/m 0,0 km/h (0 Bft) 95,74 %
12.12.2020 02:10 4,3 C 3,9 C 2,7 C 98 % 992,1 hPa 0,0 l/m 0 min 0 min 0 W/m 12,9 km/h (3 Bft) 97,87 %
12.12.2020 02:12 4,3 C 3,9 C 2,7 C 98 % 992,1 hPa 0,0 l/m 0 min 0 min 0 W/m 6,4 km/h (2 Bft) 97,87 %
12.12.2020 02:14 4,3 C 3,9 C 2,7 C 98 % 992,1 hPa 0,0 l/m 0 min 0 min 0 W/m 0,0 km/h (0 Bft) 97,87 %
12.12.2020 02:16 4,3 C 3,9 C 2,7 C 98 % 992,1 hPa 0,0 l/m 0 min 0 min 0 W/m 6,4 km/h (2 Bft) 97,83 %
12.12.2020 02:18 4,3 C 3,9 C 2,7 C 97 % 992,2 hPa 0,0 l/m 0 min 0 min 0 W/m 0,0 km/h (0 Bft) 97,87 %
12.12.2020 02:20 4,3 C 3,9 C 2,7 C 97 % 992,2 hPa 0,0 l/m 0 min 0 min 0 W/m 12,9 km/h (3 Bft) 97,87 %
12.12.2020 02:22 4,3 C 3,9 C 2,7 C 97 % 992,2 hPa 0,0 l/m 0 min 0 min 0 W/m 12,9 km/h (3 Bft) 97,87 %
12.12.2020 02:24 4,3 C 3,9 C 2,7 C 97 % 992,2 hPa 0,0 l/m 0 min 0 min 0 W/m 12,9 km/h (3 Bft) 97,87 %
12.12.2020 02:26 4,3 C 3,9 C 2,7 C 97 % 992,3 hPa 0,0 l/m 0 min 0 min 0 W/m 3,2 km/h (1 Bft) 97,87 %
12.12.2020 02:28 4,3 C 3,9 C 2,7 C 97 % 992,3 hPa 0,0 l/m 0 min 0 min 0 W/m 12,9 km/h (3 Bft) 93,48 %
12.12.2020 02:30 4,3 C 3,9 C 2,7 C 97 % 992,3 hPa 0,0 l/m 0 min 0 min 0 W/m 12,9 km/h (3 Bft) 97,87 %
12.12.2020 02:32 4,3 C 3,9 C 2,7 C 97 % 992,3 hPa 0,0 l/m 0 min 0 min 0 W/m 3,2 km/h (1 Bft) 97,87 %
12.12.2020 02:34 4,3 C 3,9 C 2,7 C 97 % 992,3 hPa 0,0 l/m 0 min 0 min 0 W/m 12,9 km/h (3 Bft) 97,87 %
12.12.2020 02:36 4,3 C 3,9 C 2,7 C 97 % 992,3 hPa 0,0 l/m 0 min 0 min 0 W/m 6,4 km/h (2 Bft) 95,74 %
12.12.2020 02:38 4,3 C 3,9 C 2,7 C 97 % 992,3 hPa 0,0 l/m 0 min 0 min 0 W/m 6,4 km/h (2 Bft) 100,00 %
12.12.2020 02:40 4,3 C 3,9 C 2,7 C 97 % 992,3 hPa 0,0 l/m 0 min 0 min 0 W/m 6,4 km/h (2 Bft) 97,83 %
12.12.2020 02:42 4,3 C 3,9 C 2,7 C 97 % 992,3 hPa 0,0 l/m 0 min 0 min 0 W/m 12,9 km/h (3 Bft) 97,87 %
12.12.2020 02:44 4,4 C 3,9 C 2,7 C 97 % 992,3 hPa 0,0 l/m 0 min 0 min 0 W/m 12,9 km/h (3 Bft) 97,87 %
12.12.2020 02:46 4,4 C 3,9 C 3,3 C 97 % 992,3 hPa 0,0 l/m 0 min 0 min 0 W/m 12,9 km/h (3 Bft) 95,74 %
12.12.2020 02:48 4,4 C 3,9 C 3,3 C 97 % 992,3 hPa 0,0 l/m 0 min 0 min 0 W/m 12,9 km/h (3 Bft) 100,00 %
12.12.2020 02:50 4,4 C 3,9 C 3,3 C 97 % 992,3 hPa 0,0 l/m 0 min 0 min 0 W/m 6,4 km/h (2 Bft) 100,00 %
12.12.2020 02:52 4,4 C 3,9 C 3,3 C 97 % 992,3 hPa 0,0 l/m 0 min 0 min 0 W/m 3,2 km/h (1 Bft) 100,00 %
12.12.2020 02:54 4,4 C 3,9 C 3,3 C 98 % 992,3 hPa 0,0 l/m 0 min 0 min 0 W/m 6,4 km/h (2 Bft) 95,74 %
12.12.2020 02:56 4,4 C 3,9 C 3,3 C 98 % 992,4 hPa 0,0 l/m 0 min 0 min 0 W/m 16,1 km/h (3 Bft) 100,00 %
12.12.2020 02:58 4,4 C 3,9 C 3,3 C 98 % 992,4 hPa 0,0 l/m 0 min 0 min 0 W/m 12,9 km/h (3 Bft) 97,87 %
12.12.2020 03:00 4,5 C 3,9 C 3,3 C 98 % 992,4 hPa 0,0 l/m 0 min 0 min 0 W/m 3,2 km/h (1 Bft) 100,00 %
12.12.2020 03:02 4,5 C 3,9 C 3,3 C 98 % 992,4 hPa 0,0 l/m 0 min 0 min 0 W/m 6,4 km/h (2 Bft) 97,87 %
12.12.2020 03:04 4,5 C 3,9 C 3,3 C 98 % 992,4 hPa 0,0 l/m 0 min 0 min 0 W/m 0,0 km/h (0 Bft) 100,00 %
12.12.2020 03:06 4,5 C 3,9 C 3,3 C 98 % 992,4 hPa 0,0 l/m 0 min 0 min 0 W/m 12,9 km/h (3 Bft) 100,00 %
12.12.2020 03:08 4,5 C 3,9 C 3,3 C 98 % 992,5 hPa 0,0 l/m 0 min 0 min 0 W/m 6,4 km/h (2 Bft) 100,00 %
12.12.2020 03:10 4,5 C 3,9 C 3,3 C 98 % 992,5 hPa 0,0 l/m 0 min 0 min 0 W/m 12,9 km/h (3 Bft) 95,74 %
12.12.2020 03:12 4,5 C 3,9 C 3,3 C 98 % 992,5 hPa 0,0 l/m 0 min 0 min 0 W/m 6,4 km/h (2 Bft) 97,87 %
12.12.2020 03:14 4,5 C 3,9 C 3,3 C 98 % 992,5 hPa 0,0 l/m 0 min 0 min 0 W/m 6,4 km/h (2 Bft) 97,87 %
12.12.2020 03:16 4,6 C 3,9 C 3,3 C 97 % 992,5 hPa 0,0 l/m 0 min 0 min 0 W/m 12,9 km/h (3 Bft) 97,83 %
12.12.2020 03:18 4,6 C 3,9 C 3,3 C 97 % 992,5 hPa 0,0 l/m 0 min 0 min 0 W/m 16,1 km/h (3 Bft) 97,87 %
12.12.2020 03:20 4,6 C 3,9 C 3,3 C 97 % 992,5 hPa 0,0 l/m 0 min 0 min 0 W/m 6,4 km/h (2 Bft) 97,87 %
12.12.2020 03:22 4,6 C 3,9 C 3,3 C 97 % 992,5 hPa 0,0 l/m 0 min 0 min 0 W/m 12,9 km/h (3 Bft) 97,87 %
12.12.2020 03:24 4,6 C 3,9 C 3,3 C 97 % 992,5 hPa 0,0 l/m 0 min 0 min 0 W/m 12,9 km/h (3 Bft) 95,74 %
12.12.2020 03:26 4,6 C 3,9 C 3,3 C 97 % 992,5 hPa 0,0 l/m 0 min 0 min 0 W/m 3,2 km/h (1 Bft) 95,74 %
12.12.2020 03:28 4,6 C 3,9 C 3,3 C 97 % 992,5 hPa 0,0 l/m 0 min 0 min 0 W/m 3,2 km/h (1 Bft) 97,83 %
12.12.2020 03:30 4,6 C 3,9 C 3,3 C 97 % 992,5 hPa 0,0 l/m 0 min 0 min 0 W/m 0,0 km/h (0 Bft) 97,56 %
12.12.2020 03:32 4,6 C 3,9 C 3,3 C 97 % 992,5 hPa 0,0 l/m 0 min 0 min 0 W/m 16,1 km/h (3 Bft) 97,83 %
12.12.2020 03:34 4,6 C 3,9 C 3,3 C 97 % 992,5 hPa 0,0 l/m 0 min 0 min 0 W/m 6,4 km/h (2 Bft) 97,87 %
12.12.2020 03:36 4,7 C 3,9 C 3,3 C 97 % 992,5 hPa 0,0 l/m 0 min 0 min 0 W/m 16,1 km/h (3 Bft) 95,74 %
12.12.2020 03:38 4,7 C 3,9 C 3,3 C 97 % 992,5 hPa 0,0 l/m 0 min 0 min 0 W/m 3,2 km/h (1 Bft) 97,87 %
12.12.2020 03:40 4,7 C 3,9 C 3,3 C 97 % 992,5 hPa 0,0 l/m 0 min 0 min 0 W/m 6,4 km/h (2 Bft) 97,87 %
12.12.2020 03:42 4,7 C 4,4 C 3,3 C 97 % 992,5 hPa 0,0 l/m 0 min 0 min 0 W/m 12,9 km/h (3 Bft) 95,65 %
12.12.2020 03:44 4,7 C 4,4 C 3,3 C 97 % 992,4 hPa 0,0 l/m 0 min 0 min 0 W/m 9,7 km/h (2 Bft) 95,74 %
12.12.2020 03:46 4,7 C 4,4 C 3,3 C 97 % 992,5 hPa 0,0 l/m 0 min 0 min 0 W/m 6,4 km/h (2 Bft) 95,74 %
12.12.2020 03:48 4,7 C 4,4 C 3,3 C 97 % 992,5 hPa 0,0 l/m 0 min 0 min 0 W/m 0,0 km/h (0 Bft) 93,62 %
12.12.2020 03:50 4,7 C 4,4 C 3,3 C 97 % 992,5 hPa 0,0 l/m 0 min 0 min 0 W/m 3,2 km/h (1 Bft) 95,74 %
12.12.2020 03:52 4,7 C 4,4 C 3,3 C 97 % 992,5 hPa 0,0 l/m 0 min 0 min 0 W/m 3,2 km/h (1 Bft) 95,74 %
12.12.2020 03:54 4,7 C 4,4 C 3,3 C 97 % 992,5 hPa 0,0 l/m 0 min 0 min 0 W/m 3,2 km/h (1 Bft) 95,65 %
12.12.2020 03:56 4,7 C 4,4 C 3,3 C 97 % 992,6 hPa 0,0 l/m 0 min 0 min 0 W/m 6,4 km/h (2 Bft) 93,62 %
12.12.2020 03:58 4,7 C 4,4 C 3,3 C 97 % 992,6 hPa 0,0 l/m 0 min 0 min 0 W/m 12,9 km/h (3 Bft) 95,74 %
12.12.2020 04:00 4,7 C 4,4 C 3,3 C 97 % 992,6 hPa 0,0 l/m 0 min 0 min 0 W/m 12,9 km/h (3 Bft) 93,62 %
12.12.2020 04:02 4,8 C 4,4 C 3,3 C 97 % 992,6 hPa 0,0 l/m 0 min 0 min 0 W/m 6,4 km/h (2 Bft) 95,24 %
12.12.2020 04:04 4,8 C 4,4 C 3,3 C 97 % 992,6 hPa 0,0 l/m 0 min 0 min 0 W/m 16,1 km/h (3 Bft) 100,00 %
12.12.2020 04:06 4,8 C 4,4 C 3,3 C 97 % 992,7 hPa 0,0 l/m 0 min 0 min 0 W/m 12,9 km/h (3 Bft) 95,74 %
12.12.2020 04:08 4,8 C 4,4 C 3,3 C 97 % 992,7 hPa 0,0 l/m 0 min 0 min 0 W/m 0,0 km/h (0 Bft) 95,74 %
12.12.2020 04:10 4,8 C 4,4 C 3,3 C 97 % 992,7 hPa 0,0 l/m 0 min 0 min 0 W/m 6,4 km/h (2 Bft) 98,00 %
12.12.2020 04:12 4,8 C 4,4 C 3,3 C 97 % 992,7 hPa 0,0 l/m 0 min 0 min 0 W/m 12,9 km/h (3 Bft) 93,62 %
12.12.2020 04:14 4,8 C 4,4 C 3,3 C 97 % 992,8 hPa 0,0 l/m 0 min 0 min 0 W/m 12,9 km/h (3 Bft) 95,74 %
12.12.2020 04:16 4,8 C 4,4 C 3,3 C 97 % 992,8 hPa 0,0 l/m 0 min 0 min 0 W/m 3,2 km/h (1 Bft) 93,48 %
12.12.2020 04:18 4,8 C 4,4 C 3,3 C 97 % 992,8 hPa 0,0 l/m 0 min 0 min 0 W/m 0,0 km/h (0 Bft) 95,74 %
12.12.2020 04:20 4,8 C 4,4 C 3,3 C 97 % 992,8 hPa 0,0 l/m 0 min 0 min 0 W/m 3,2 km/h (1 Bft) 95,74 %
12.12.2020 04:22 4,8 C 4,4 C 3,3 C 97 % 992,9 hPa 0,0 l/m 0 min 0 min 0 W/m 12,9 km/h (3 Bft) 93,62 %
12.12.2020 04:24 4,8 C 4,4 C 3,3 C 97 % 992,9 hPa 0,0 l/m 0 min 0 min 0 W/m 6,4 km/h (2 Bft) 95,74 %
12.12.2020 04:26 4,8 C 4,4 C 3,3 C 97 % 992,9 hPa 0,0 l/m 0 min 0 min 0 W/m 12,9 km/h (3 Bft) 97,83 %
12.12.2020 04:28 4,8 C 4,4 C 3,3 C 97 % 992,9 hPa 0,0 l/m 0 min 0 min 0 W/m 12,9 km/h (3 Bft) 97,87 %
12.12.2020 04:30 4,8 C 4,4 C 3,3 C 97 % 992,9 hPa 0,0 l/m 0 min 0 min 0 W/m 6,4 km/h (2 Bft) 97,87 %
12.12.2020 04:32 4,8 C 4,4 C 3,3 C 97 % 992,9 hPa 0,0 l/m 0 min 0 min 0 W/m 12,9 km/h (3 Bft) 97,22 %
12.12.2020 04:34 4,8 C 4,4 C 3,3 C 97 % 992,9 hPa 0,0 l/m 0 min 0 min 0 W/m 12,9 km/h (3 Bft) 97,87 %
12.12.2020 04:36 4,8 C 4,4 C 3,3 C 97 % 992,9 hPa 0,0 l/m 0 min 0 min 0 W/m 12,9 km/h (3 Bft) 95,74 %
12.12.2020 04:38 4,8 C 4,4 C 3,3 C 97 % 993,0 hPa 0,0 l/m 0 min 0 min 0 W/m 6,4 km/h (2 Bft) 94,83 %
12.12.2020 04:40 4,8 C 4,4 C 3,3 C 97 % 992,9 hPa 0,0 l/m 0 min 0 min 0 W/m 12,9 km/h (3 Bft) 100,00 %
12.12.2020 04:42 4,9 C 4,4 C 3,3 C 97 % 993,0 hPa 0,0 l/m 0 min 0 min 0 W/m 12,9 km/h (3 Bft) 97,87 %
12.12.2020 04:44 4,9 C 4,4 C 3,3 C 97 % 993,0 hPa 0,0 l/m 0 min 0 min 0 W/m 16,1 km/h (3 Bft) 97,87 %
12.12.2020 04:46 4,9 C 4,4 C 3,3 C 97 % 992,9 hPa 0,0 l/m 0 min 0 min 0 W/m 12,9 km/h (3 Bft) 95,83 %
12.12.2020 04:48 4,9 C 4,4 C 3,3 C 97 % 993,0 hPa 0,0 l/m 0 min 0 min 0 W/m 16,1 km/h (3 Bft) 97,87 %
12.12.2020 04:50 4,9 C 4,4 C 3,3 C 97 % 993,0 hPa 0,0 l/m 0 min 0 min 0 W/m 19,3 km/h (3 Bft) 93,62 %
12.12.2020 04:52 4,9 C 4,4 C 3,3 C 97 % 993,0 hPa 0,0 l/m 0 min 0 min 0 W/m 12,9 km/h (3 Bft) 56,52 %
12.12.2020 04:54 4,9 C 4,4 C 3,3 C 97 % 993,0 hPa 0,0 l/m 0 min 0 min 0 W/m 16,1 km/h (3 Bft) 97,56 %
12.12.2020 04:56 4,9 C 4,4 C 3,3 C 97 % 993,0 hPa 0,0 l/m 0 min 0 min 0 W/m 19,3 km/h (3 Bft) 93,62 %
12.12.2020 04:58 4,9 C 4,4 C 3,3 C 97 % 993,0 hPa 0,0 l/m 0 min 0 min 0 W/m 12,9 km/h (3 Bft) 95,74 %
12.12.2020 05:00 4,9 C 4,4 C 3,3 C 97 % 993,1 hPa 0,0 l/m 0 min 0 min 0 W/m 16,1 km/h (3 Bft) 95,74 %
12.12.2020 05:02 4,9 C 4,4 C 3,3 C 97 % 993,1 hPa 0,0 l/m 0 min 0 min 0 W/m 12,9 km/h (3 Bft) 95,74 %
12.12.2020 05:04 4,9 C 4,4 C 3,3 C 97 % 993,1 hPa 0,0 l/m 0 min 0 min 0 W/m 3,2 km/h (1 Bft) 95,74 %
12.12.2020 05:06 4,9 C 4,4 C 3,3 C 97 % 993,2 hPa 0,0 l/m 0 min 0 min 0 W/m 6,4 km/h (2 Bft) 93,48 %
12.12.2020 05:08 4,9 C 4,4 C 3,3 C 97 % 993,1 hPa 0,0 l/m 0 min 0 min 0 W/m 16,1 km/h (3 Bft) 95,74 %
12.12.2020 05:10 4,9 C 4,4 C 3,3 C 97 % 993,2 hPa 0,0 l/m 0 min 0 min 0 W/m 16,1 km/h (3 Bft) 93,62 %
12.12.2020 05:12 4,9 C 4,4 C 3,3 C 97 % 993,2 hPa 0,0 l/m 0 min 0 min 0 W/m 22,5 km/h (4 Bft) 95,74 %
12.12.2020 05:14 4,9 C 4,4 C 3,3 C 97 % 993,2 hPa 0,0 l/m 0 min 0 min 0 W/m 12,9 km/h (3 Bft) 95,74 %
12.12.2020 05:16 4,9 C 4,4 C 3,3 C 97 % 993,2 hPa 0,0 l/m 0 min 0 min 0 W/m 19,3 km/h (3 Bft) 95,74 %
12.12.2020 05:18 4,9 C 3,9 C 3,3 C 97 % 993,2 hPa 0,0 l/m 0 min 0 min 0 W/m 16,1 km/h (3 Bft) 95,65 %
12.12.2020 05:20 4,9 C 3,9 C 3,3 C 97 % 993,2 hPa 0,0 l/m 0 min 0 min 0 W/m 12,9 km/h (3 Bft) 95,74 %
12.12.2020 05:22 4,9 C 3,9 C 3,3 C 97 % 993,3 hPa 0,0 l/m 0 min 0 min 0 W/m 12,9 km/h (3 Bft) 95,74 %
12.12.2020 05:24 4,9 C 3,9 C 3,3 C 97 % 993,3 hPa 0,0 l/m 0 min 0 min 0 W/m 19,3 km/h (3 Bft) 93,62 %
12.12.2020 05:26 4,9 C 3,9 C 3,3 C 97 % 993,3 hPa 0,0 l/m 0 min 0 min 0 W/m 12,9 km/h (3 Bft) 93,62 %
12.12.2020 05:28 4,9 C 3,9 C 3,3 C 97 % 993,3 hPa 0,0 l/m 0 min 0 min 0 W/m 16,1 km/h (3 Bft) 95,74 %
12.12.2020 05:30 4,9 C 3,9 C 3,3 C 97 % 993,3 hPa 0,0 l/m 0 min 0 min 0 W/m 16,1 km/h (3 Bft) 95,65 %
12.12.2020 05:32 4,9 C 3,9 C 3,3 C 97 % 993,3 hPa 0,0 l/m 0 min 0 min 0 W/m 6,4 km/h (2 Bft) 95,74 %
12.12.2020 05:34 4,9 C 3,9 C 3,3 C 97 % 993,4 hPa 0,0 l/m 0 min 0 min 0 W/m 3,2 km/h (1 Bft) 93,62 %
12.12.2020 05:36 4,9 C 3,9 C 3,3 C 97 % 993,4 hPa 0,0 l/m 0 min 0 min 0 W/m 3,2 km/h (1 Bft) 95,74 %
12.12.2020 05:38 4,9 C 3,9 C 3,3 C 97 % 993,4 hPa 0,0 l/m 0 min 0 min 0 W/m 3,2 km/h (1 Bft) 95,74 %
12.12.2020 05:40 4,9 C 3,9 C 3,3 C 97 % 993,4 hPa 0,0 l/m 0 min 0 min 0 W/m 6,4 km/h (2 Bft) 95,74 %
12.12.2020 05:42 4,9 C 3,9 C 3,3 C 97 % 993,4 hPa 0,0 l/m 0 min 0 min 0 W/m 16,1 km/h (3 Bft) 91,30 %
12.12.2020 05:44 4,9 C 3,9 C 3,3 C 97 % 993,4 hPa 0,0 l/m 0 min 0 min 0 W/m 19,3 km/h (3 Bft) 97,87 %
12.12.2020 05:46 4,9 C 3,9 C 3,3 C 97 % 993,4 hPa 0,0 l/m 0 min 0 min 0 W/m 0,0 km/h (0 Bft) 97,87 %
12.12.2020 05:48 4,9 C 3,9 C 3,3 C 97 % 993,4 hPa 0,2 l/m 0 min 0 min 0 W/m 3,2 km/h (1 Bft) 95,74 %
12.12.2020 05:50 4,9 C 3,9 C 3,3 C 97 % 993,4 hPa 0,0 l/m 0 min 0 min 0 W/m 6,4 km/h (2 Bft) 97,87 %
12.12.2020 05:52 4,9 C 3,9 C 3,3 C 97 % 993,4 hPa 0,0 l/m 0 min 0 min 0 W/m 16,1 km/h (3 Bft) 97,87 %
12.12.2020 05:54 4,9 C 3,9 C 3,3 C 97 % 993,4 hPa 0,0 l/m 0 min 2 min 0 W/m 12,9 km/h (3 Bft) 97,83 %
12.12.2020 05:56 4,9 C 3,9 C 3,3 C 97 % 993,4 hPa 0,0 l/m 0 min 2 min 0 W/m 12,9 km/h (3 Bft) 95,74 %
12.12.2020 05:58 4,9 C 3,9 C 3,3 C 97 % 993,4 hPa 0,0 l/m 0 min 0 min 0 W/m 12,9 km/h (3 Bft) 97,87 %
12.12.2020 06:00 4,9 C 3,9 C 3,3 C 97 % 993,4 hPa 0,0 l/m 0 min 2 min 0 W/m 12,9 km/h (3 Bft) 97,87 %
12.12.2020 06:02 4,9 C 3,9 C 3,3 C 97 % 993,4 hPa 0,0 l/m 0 min 2 min 0 W/m 6,4 km/h (2 Bft) 97,87 %
12.12.2020 06:04 4,9 C 3,9 C 3,3 C 97 % 993,5 hPa 0,0 l/m 0 min 2 min 0 W/m 16,1 km/h (3 Bft) 97,83 %
12.12.2020 06:08 4,9 C 3,9 C 3,3 C 97 % 993,5 hPa 0,0 l/m 0 min 4 min 0 W/m 12,9 km/h (3 Bft) 96,84 %
12.12.2020 06:10 4,9 C 3,9 C 3,3 C 97 % 993,5 hPa 0,0 l/m 0 min 2 min 0 W/m 16,1 km/h (3 Bft) 97,87 %
12.12.2020 06:12 4,9 C 3,9 C 3,3 C 97 % 993,5 hPa 0,2 l/m 0 min 2 min 0 W/m 16,1 km/h (3 Bft) 97,87 %
12.12.2020 06:14 4,9 C 3,9 C 3,3 C 97 % 993,5 hPa 0,0 l/m 0 min 2 min 0 W/m 16,1 km/h (3 Bft) 95,74 %
12.12.2020 06:16 4,9 C 3,9 C 3,3 C 97 % 993,5 hPa 0,0 l/m 0 min 2 min 0 W/m 12,9 km/h (3 Bft) 95,65 %
12.12.2020 06:18 4,9 C 3,9 C 3,3 C 97 % 993,5 hPa 0,0 l/m 0 min 2 min 0 W/m 12,9 km/h (3 Bft) 95,74 %
12.12.2020 06:20 4,9 C 3,9 C 3,3 C 98 % 993,6 hPa 0,0 l/m 0 min 2 min 0 W/m 3,2 km/h (1 Bft) 93,62 %
12.12.2020 06:22 4,9 C 3,9 C 3,3 C 98 % 993,6 hPa 0,0 l/m 0 min 0 min 0 W/m 19,3 km/h (3 Bft) 93,62 %
12.12.2020 06:24 4,9 C 3,9 C 3,3 C 98 % 993,6 hPa 0,0 l/m 0 min 2 min 0 W/m 16,1 km/h (3 Bft) 95,74 %
12.12.2020 06:26 4,9 C 3,9 C 3,3 C 98 % 993,6 hPa 0,0 l/m 0 min 0 min 0 W/m 16,1 km/h (3 Bft) 93,62 %
12.12.2020 06:28 4,9 C 3,9 C 3,3 C 98 % 993,6 hPa 0,0 l/m 0 min 2 min 0 W/m 6,4 km/h (2 Bft) 93,48 %
12.12.2020 06:30 4,9 C 3,9 C 3,3 C 98 % 993,6 hPa 0,0 l/m 0 min 0 min 0 W/m 12,9 km/h (3 Bft) 95,74 %
12.12.2020 06:32 4,9 C 3,9 C 3,3 C 98 % 993,6 hPa 0,0 l/m 0 min 2 min 0 W/m 12,9 km/h (3 Bft) 95,74 %
12.12.2020 06:34 4,9 C 3,9 C 3,3 C 98 % 993,6 hPa 0,0 l/m 0 min 2 min 0 W/m 3,2 km/h (1 Bft) 95,74 %
12.12.2020 06:36 4,9 C 3,9 C 3,3 C 98 % 993,6 hPa 0,0 l/m 0 min 2 min 0 W/m 6,4 km/h (2 Bft) 95,74 %
12.12.2020 06:38 4,9 C 3,9 C 3,3 C 98 % 993,6 hPa 0,0 l/m 0 min 2 min 0 W/m 6,4 km/h (2 Bft) 91,49 %
12.12.2020 06:40 4,9 C 3,9 C 3,3 C 98 % 993,7 hPa 0,2 l/m 0 min 2 min 0 W/m 6,4 km/h (2 Bft) 93,48 %
12.12.2020 06:42 4,9 C 3,9 C 3,3 C 98 % 993,7 hPa 0,0 l/m 0 min 2 min 0 W/m 3,2 km/h (1 Bft) 95,74 %
12.12.2020 06:44 4,9 C 3,9 C 3,3 C 98 % 993,7 hPa 0,0 l/m 0 min 2 min 0 W/m 0,0 km/h (0 Bft) 95,74 %
12.12.2020 06:46 4,9 C 3,9 C 3,3 C 98 % 993,7 hPa 0,0 l/m 0 min 2 min 0 W/m 0,0 km/h (0 Bft) 89,36 %
12.12.2020 06:48 4,9 C 3,9 C 3,3 C 98 % 993,7 hPa 0,2 l/m 0 min 2 min 0 W/m 0,0 km/h (0 Bft) 95,74 %
12.12.2020 06:50 4,9 C 3,9 C 3,3 C 98 % 993,7 hPa 0,0 l/m 0 min 2 min 0 W/m 12,9 km/h (3 Bft) 93,62 %
12.12.2020 06:52 4,9 C 3,9 C 3,3 C 98 % 993,8 hPa 0,0 l/m 0 min 2 min 0 W/m 3,2 km/h (1 Bft) 95,65 %
12.12.2020 06:54 4,9 C 3,9 C 3,3 C 98 % 993,8 hPa 0,0 l/m 0 min 2 min 0 W/m 6,4 km/h (2 Bft) 95,74 %
12.12.2020 06:56 4,9 C 3,9 C 3,3 C 98 % 993,7 hPa 0,0 l/m 0 min 2 min 0 W/m 12,9 km/h (3 Bft) 95,74 %
12.12.2020 06:58 4,9 C 3,9 C 3,3 C 98 % 993,8 hPa 0,2 l/m 0 min 2 min 0 W/m 16,1 km/h (3 Bft) 95,74 %
12.12.2020 07:00 4,9 C 3,9 C 3,3 C 98 % 993,8 hPa 0,0 l/m 0 min 2 min 0 W/m 12,9 km/h (3 Bft) 97,87 %
12.12.2020 07:02 4,9 C 3,9 C 3,3 C 98 % 993,8 hPa 0,0 l/m 0 min 2 min 0 W/m 6,4 km/h (2 Bft) 97,87 %
12.12.2020 07:04 4,9 C 3,9 C 3,3 C 98 % 993,9 hPa 0,0 l/m 0 min 2 min 0 W/m 6,4 km/h (2 Bft) 95,65 %
12.12.2020 07:06 4,9 C 3,9 C 3,3 C 98 % 993,9 hPa 0,0 l/m 0 min 0 min 0 W/m 3,2 km/h (1 Bft) 95,74 %
12.12.2020 07:08 4,9 C 3,9 C 3,3 C 98 % 993,9 hPa 0,0 l/m 0 min 0 min 0 W/m 0,0 km/h (0 Bft) 61,70 %
12.12.2020 07:10 4,9 C 4,4 C 3,3 C 98 % 993,9 hPa 0,0 l/m 0 min 0 min 0 W/m 6,4 km/h (2 Bft) 88,37 %
12.12.2020 07:12 4,9 C 4,4 C 3,3 C 98 % 993,9 hPa 0,0 l/m 0 min 2 min 0 W/m 12,9 km/h (3 Bft) 97,87 %
12.12.2020 07:14 4,9 C 4,4 C 3,3 C 98 % 993,9 hPa 0,0 l/m 0 min 2 min 0 W/m 3,2 km/h (1 Bft) 97,87 %
12.12.2020 07:16 4,9 C 4,4 C 3,3 C 98 % 994,0 hPa 0,0 l/m 0 min 2 min 0 W/m 6,4 km/h (2 Bft) 95,65 %
12.12.2020 07:18 4,9 C 4,4 C 3,3 C 98 % 994,0 hPa 0,0 l/m 0 min 2 min 0 W/m 12,9 km/h (3 Bft) 97,87 %
12.12.2020 07:20 4,9 C 4,4 C 3,8 C 98 % 994,0 hPa 0,0 l/m 0 min 2 min 0 W/m 3,2 km/h (1 Bft) 97,87 %
12.12.2020 07:22 4,9 C 4,4 C 3,8 C 98 % 994,1 hPa 0,0 l/m 0 min 2 min 0 W/m 3,2 km/h (1 Bft) 97,87 %
12.12.2020 07:24 4,9 C 4,4 C 3,8 C 98 % 994,1 hPa 0,0 l/m 0 min 2 min 0 W/m 3,2 km/h (1 Bft) 97,87 %
12.12.2020 07:26 5,0 C 4,4 C 3,8 C 98 % 994,1 hPa 0,2 l/m 0 min 2 min 0 W/m 6,4 km/h (2 Bft) 97,87 %
12.12.2020 07:28 5,0 C 4,4 C 3,8 C 98 % 994,1 hPa 0,0 l/m 0 min 2 min 0 W/m 3,2 km/h (1 Bft) 97,83 %
12.12.2020 07:30 5,0 C 4,4 C 3,8 C 98 % 994,1 hPa 0,0 l/m 0 min 2 min 0 W/m 0,0 km/h (0 Bft) 97,87 %
12.12.2020 07:32 5,0 C 4,4 C 3,8 C 98 % 994,2 hPa 0,0 l/m 0 min 2 min 0 W/m 6,4 km/h (2 Bft) 97,87 %
12.12.2020 07:34 5,0 C 4,4 C 3,8 C 98 % 994,3 hPa 0,0 l/m 0 min 0 min 0 W/m 12,9 km/h (3 Bft) 97,87 %
12.12.2020 07:36 5,0 C 4,4 C 3,8 C 98 % 994,3 hPa 0,0 l/m 0 min 0 min 0 W/m 3,2 km/h (1 Bft) 97,87 %
12.12.2020 07:38 5,0 C 4,4 C 3,8 C 98 % 994,3 hPa 0,0 l/m 0 min 0 min 0 W/m 6,4 km/h (2 Bft) 97,87 %
12.12.2020 07:40 5,0 C 4,4 C 3,8 C 98 % 994,4 hPa 0,0 l/m 0 min 0 min 0 W/m 6,4 km/h (2 Bft) 97,83 %
12.12.2020 07:42 5,0 C 4,4 C 3,8 C 98 % 994,4 hPa 0,0 l/m 0 min 0 min 0 W/m 3,2 km/h (1 Bft) 97,87 %
12.12.2020 07:44 5,0 C 4,4 C 3,8 C 98 % 994,4 hPa 0,0 l/m 0 min 0 min 0 W/m 12,9 km/h (3 Bft) 95,74 %
12.12.2020 07:46 5,0 C 4,4 C 3,8 C 98 % 994,5 hPa 0,0 l/m 0 min 0 min 0 W/m 6,4 km/h (2 Bft) 95,74 %
12.12.2020 07:48 5,0 C 4,4 C 3,8 C 99 % 994,5 hPa 0,0 l/m 0 min 0 min 0 W/m 12,9 km/h (3 Bft) 95,74 %
12.12.2020 07:50 5,0 C 4,4 C 3,8 C 99 % 994,5 hPa 0,0 l/m 0 min 0 min 0 W/m 12,9 km/h (3 Bft) 95,74 %
12.12.2020 07:52 5,0 C 4,4 C 3,8 C 99 % 994,4 hPa 0,0 l/m 0 min 0 min 0 W/m 16,1 km/h (3 Bft) 95,65 %
12.12.2020 07:54 5,0 C 4,4 C 3,8 C 99 % 994,5 hPa 0,0 l/m 0 min 0 min 0 W/m 16,1 km/h (3 Bft) 95,74 %
12.12.2020 07:56 5,0 C 4,4 C 3,8 C 99 % 994,5 hPa 0,0 l/m 0 min 0 min 0 W/m 12,9 km/h (3 Bft) 95,74 %
12.12.2020 07:58 5,0 C 4,4 C 3,8 C 99 % 994,5 hPa 0,0 l/m 0 min 0 min 0 W/m 12,9 km/h (3 Bft) 95,74 %
12.12.2020 08:00 5,0 C 4,4 C 3,8 C 99 % 994,6 hPa 0,0 l/m 0 min 0 min 0 W/m 6,4 km/h (2 Bft) 91,49 %
12.12.2020 08:02 5,0 C 4,4 C 3,8 C 99 % 994,6 hPa 0,0 l/m 0 min 0 min 0 W/m 12,9 km/h (3 Bft) 93,48 %
12.12.2020 08:04 5,0 C 4,4 C 3,8 C 99 % 994,6 hPa 0,0 l/m 0 min 0 min 0 W/m 6,4 km/h (2 Bft) 95,74 %
12.12.2020 08:06 5,0 C 4,4 C 3,8 C 99 % 994,7 hPa 0,0 l/m 0 min 0 min 0 W/m 12,9 km/h (3 Bft) 95,74 %
12.12.2020 08:08 5,0 C 4,4 C 3,8 C 99 % 994,7 hPa 0,0 l/m 0 min 2 min 0 W/m 3,2 km/h (1 Bft) 95,74 %
12.12.2020 08:10 5,0 C 4,4 C 3,8 C 99 % 994,7 hPa 0,2 l/m 0 min 2 min 0 W/m 6,4 km/h (2 Bft) 95,74 %
12.12.2020 08:12 5,0 C 4,4 C 3,8 C 99 % 994,8 hPa 0,0 l/m 0 min 0 min 0 W/m 3,2 km/h (1 Bft) 97,87 %
12.12.2020 08:14 5,0 C 4,4 C 3,8 C 99 % 994,7 hPa 0,0 l/m 0 min 0 min 0 W/m 0,0 km/h (0 Bft) 93,48 %
12.12.2020 08:16 5,0 C 4,4 C 3,8 C 99 % 994,7 hPa 0,0 l/m 0 min 2 min 0 W/m 12,9 km/h (3 Bft) 91,49 %
12.12.2020 08:18 5,0 C 4,4 C 3,8 C 99 % 994,7 hPa 0,0 l/m 0 min 0 min 0 W/m 6,4 km/h (2 Bft) 93,62 %
12.12.2020 08:20 5,0 C 4,4 C 3,8 C 99 % 994,8 hPa 0,0 l/m 0 min 0 min 0 W/m 12,9 km/h (3 Bft) 95,74 %
12.12.2020 08:22 5,0 C 4,4 C 3,8 C 99 % 994,8 hPa 0,0 l/m 0 min 0 min 0 W/m 12,9 km/h (3 Bft) 97,87 %
12.12.2020 08:24 5,0 C 4,4 C 3,8 C 99 % 994,9 hPa 0,0 l/m 0 min 0 min 0 W/m 12,9 km/h (3 Bft) 97,87 %
12.12.2020 08:26 5,0 C 4,4 C 3,8 C 99 % 994,9 hPa 0,0 l/m 0 min 0 min 0 W/m 12,9 km/h (3 Bft) 97,83 %
12.12.2020 08:28 5,0 C 4,4 C 3,8 C 99 % 994,9 hPa 0,0 l/m 0 min 0 min 0 W/m 3,2 km/h (1 Bft) 97,87 %
12.12.2020 08:30 5,0 C 4,4 C 3,8 C 99 % 995,0 hPa 0,0 l/m 0 min 0 min 0 W/m 16,1 km/h (3 Bft) 95,74 %
12.12.2020 08:32 5,0 C 4,4 C 3,8 C 99 % 995,0 hPa 0,0 l/m 0 min 0 min 0 W/m 12,9 km/h (3 Bft) 97,87 %
12.12.2020 08:34 5,0 C 4,4 C 3,8 C 99 % 995,0 hPa 0,0 l/m 0 min 0 min 0 W/m 3,2 km/h (1 Bft) 95,74 %
12.12.2020 08:36 5,0 C 4,4 C 3,8 C 99 % 995,0 hPa 0,0 l/m 0 min 0 min 0 W/m 3,2 km/h (1 Bft) 97,87 %
12.12.2020 08:38 5,0 C 4,4 C 3,8 C 99 % 995,0 hPa 0,0 l/m 0 min 0 min 0 W/m 6,4 km/h (2 Bft) 100,00 %
12.12.2020 08:40 5,0 C 4,4 C 3,8 C 99 % 995,0 hPa 0,0 l/m 0 min 0 min 0 W/m 6,4 km/h (2 Bft) 95,74 %
12.12.2020 08:42 5,0 C 4,4 C 3,8 C 99 % 995,1 hPa 0,0 l/m 0 min 0 min 3 W/m 6,4 km/h (2 Bft) 100,00 %
12.12.2020 08:44 5,0 C 4,4 C 3,8 C 99 % 995,1 hPa 0,0 l/m 0 min 0 min 5 W/m 12,9 km/h (3 Bft) 97,87 %
12.12.2020 08:46 5,0 C 4,4 C 3,8 C 99 % 995,1 hPa 0,0 l/m 0 min 0 min 7 W/m 12,9 km/h (3 Bft) 97,87 %
12.12.2020 08:48 5,0 C 4,4 C 3,8 C 99 % 995,1 hPa 0,0 l/m 0 min 0 min 9 W/m 3,2 km/h (1 Bft) 97,87 %
12.12.2020 08:50 5,0 C 4,4 C 3,8 C 99 % 995,2 hPa 0,0 l/m 0 min 0 min 9 W/m 3,2 km/h (1 Bft) 97,87 %
12.12.2020 08:52 5,0 C 4,4 C 3,8 C 99 % 995,3 hPa 0,0 l/m 0 min 0 min 7 W/m 6,4 km/h (2 Bft) 97,83 %
12.12.2020 08:54 5,0 C 4,4 C 3,8 C 99 % 995,3 hPa 0,0 l/m 0 min 0 min 6 W/m 0,0 km/h (0 Bft) 97,87 %
12.12.2020 08:56 5,0 C 4,4 C 3,8 C 99 % 995,3 hPa 0,0 l/m 0 min 0 min 5 W/m 0,0 km/h (0 Bft) 95,74 %
12.12.2020 08:58 5,0 C 4,4 C 3,8 C 99 % 995,3 hPa 0,0 l/m 0 min 0 min 5 W/m 3,2 km/h (1 Bft) 95,74 %
12.12.2020 09:00 5,0 C 4,4 C 3,8 C 99 % 995,4 hPa 0,0 l/m 0 min 0 min 5 W/m 6,4 km/h (2 Bft) 95,74 %
12.12.2020 09:02 5,0 C 4,4 C 3,8 C 99 % 995,4 hPa 0,0 l/m 0 min 0 min 5 W/m 12,9 km/h (3 Bft) 95,65 %
12.12.2020 09:04 5,0 C 4,4 C 3,8 C 99 % 995,4 hPa 0,0 l/m 0 min 0 min 5 W/m 12,9 km/h (3 Bft) 97,87 %
12.12.2020 09:06 5,0 C 4,4 C 3,8 C 99 % 995,5 hPa 0,0 l/m 0 min 0 min 5 W/m 0,0 km/h (0 Bft) 95,74 %
12.12.2020 09:08 5,0 C 4,4 C 3,8 C 99 % 995,6 hPa 0,0 l/m 0 min 0 min 7 W/m 3,2 km/h (1 Bft) 93,62 %
12.12.2020 09:10 5,1 C 4,4 C 3,8 C 99 % 995,6 hPa 0,0 l/m 0 min 0 min 9 W/m 0,0 km/h (0 Bft) 97,87 %
12.12.2020 09:12 5,1 C 4,4 C 3,8 C 99 % 995,5 hPa 0,0 l/m 0 min 0 min 10 W/m 3,2 km/h (1 Bft) 97,87 %
12.12.2020 09:14 5,0 C 4,4 C 3,8 C 99 % 995,6 hPa 0,0 l/m 0 min 0 min 11 W/m 3,2 km/h (1 Bft) 97,83 %
12.12.2020 09:16 5,1 C 4,4 C 3,8 C 99 % 995,6 hPa 0,0 l/m 0 min 0 min 11 W/m 0,0 km/h (0 Bft) 97,87 %
12.12.2020 09:18 5,1 C 4,4 C 3,8 C 99 % 995,7 hPa 0,0 l/m 0 min 0 min 9 W/m 6,4 km/h (2 Bft) 95,74 %
12.12.2020 09:20 5,1 C 4,4 C 3,8 C 99 % 995,7 hPa 0,0 l/m 0 min 0 min 9 W/m 0,0 km/h (0 Bft) 95,74 %
12.12.2020 09:22 5,1 C 4,4 C 3,8 C 99 % 995,8 hPa 0,0 l/m 0 min 0 min 9 W/m 6,4 km/h (2 Bft) 97,87 %
12.12.2020 09:24 5,1 C 4,4 C 3,8 C 99 % 995,8 hPa 0,0 l/m 0 min 0 min 9 W/m 3,2 km/h (1 Bft) 97,87 %
12.12.2020 09:26 5,1 C 4,4 C 3,8 C 99 % 995,8 hPa 0,0 l/m 0 min 0 min 10 W/m 0,0 km/h (0 Bft) 97,83 %
12.12.2020 09:28 5,1 C 4,4 C 3,8 C 99 % 995,9 hPa 0,0 l/m 0 min 0 min 11 W/m 0,0 km/h (0 Bft) 95,74 %
12.12.2020 09:30 5,1 C 4,4 C 3,8 C 99 % 995,9 hPa 0,0 l/m 0 min 0 min 12 W/m 0,0 km/h (0 Bft) 97,87 %
12.12.2020 09:32 5,1 C 4,4 C 3,8 C 99 % 995,9 hPa 0,0 l/m 0 min 0 min 12 W/m 0,0 km/h (0 Bft) 95,74 %
12.12.2020 09:34 5,1 C 4,4 C 3,8 C 99 % 996,0 hPa 0,0 l/m 0 min 0 min 12 W/m 3,2 km/h (1 Bft) 97,87 %
12.12.2020 09:36 5,1 C 4,4 C 3,8 C 99 % 996,0 hPa 0,0 l/m 0 min 0 min 12 W/m 0,0 km/h (0 Bft) 100,00 %
12.12.2020 09:38 5,1 C 4,4 C 3,8 C 99 % 996,1 hPa 0,0 l/m 0 min 0 min 12 W/m 0,0 km/h (0 Bft) 97,83 %
12.12.2020 09:40 5,1 C 4,4 C 3,8 C 99 % 996,1 hPa 0,0 l/m 0 min 0 min 13 W/m 3,2 km/h (1 Bft) 100,00 %
12.12.2020 09:42 5,1 C 4,4 C 3,8 C 99 % 996,0 hPa 0,0 l/m 0 min 0 min 14 W/m 0,0 km/h (0 Bft) 100,00 %
12.12.2020 09:44 5,1 C 4,4 C 3,8 C 99 % 996,1 hPa 0,0 l/m 0 min 0 min 17 W/m 6,4 km/h (2 Bft) 100,00 %
12.12.2020 09:46 5,1 C 4,4 C 3,8 C 99 % 996,1 hPa 0,0 l/m 0 min 0 min 18 W/m 3,2 km/h (1 Bft) 97,87 %
12.12.2020 09:48 5,2 C 4,4 C 3,8 C 99 % 996,1 hPa 0,0 l/m 0 min 0 min 20 W/m 0,0 km/h (0 Bft) 100,00 %
12.12.2020 09:50 5,2 C 4,4 C 3,8 C 99 % 996,2 hPa 0,0 l/m 0 min 0 min 21 W/m 3,2 km/h (1 Bft) 100,00 %
12.12.2020 09:52 5,2 C 4,4 C 3,8 C 99 % 996,2 hPa 0,0 l/m 0 min 0 min 21 W/m 3,2 km/h (1 Bft) 100,00 %
12.12.2020 09:54 5,2 C 4,4 C 3,8 C 99 % 996,2 hPa 0,0 l/m 0 min 0 min 21 W/m 3,2 km/h (1 Bft) 100,00 %
12.12.2020 09:56 5,2 C 4,4 C 3,8 C 99 % 996,3 hPa 0,0 l/m 0 min 0 min 21 W/m 3,2 km/h (1 Bft) 97,87 %
12.12.2020 09:58 5,3 C 4,4 C 3,8 C 99 % 996,3 hPa 0,0 l/m 0 min 0 min 19 W/m 3,2 km/h (1 Bft) 100,00 %
12.12.2020 10:00 5,2 C 4,4 C 3,8 C 99 % 996,3 hPa 0,0 l/m 0 min 0 min 19 W/m 0,0 km/h (0 Bft) 100,00 %
12.12.2020 10:02 5,3 C 5,0 C 3,8 C 99 % 996,4 hPa 0,0 l/m 0 min 0 min 19 W/m 3,2 km/h (1 Bft) 100,00 %
12.12.2020 10:04 5,3 C 5,0 C 3,8 C 99 % 996,4 hPa 0,0 l/m 0 min 0 min 21 W/m 6,4 km/h (2 Bft) 100,00 %
12.12.2020 10:06 5,3 C 5,0 C 3,8 C 99 % 996,4 hPa 0,0 l/m 0 min 0 min 21 W/m 12,9 km/h (3 Bft) 97,87 %
12.12.2020 10:08 5,3 C 5,0 C 4,4 C 99 % 996,5 hPa 0,0 l/m 0 min 0 min 22 W/m 6,4 km/h (2 Bft) 97,87 %
12.12.2020 10:10 5,3 C 5,0 C 4,4 C 99 % 996,5 hPa 0,0 l/m 0 min 0 min 21 W/m 6,4 km/h (2 Bft) 100,00 %
12.12.2020 10:12 5,3 C 5,0 C 4,4 C 99 % 996,5 hPa 0,0 l/m 0 min 0 min 19 W/m 6,4 km/h (2 Bft) 100,00 %
12.12.2020 10:14 5,3 C 5,0 C 4,4 C 99 % 996,5 hPa 0,0 l/m 0 min 0 min 21 W/m 3,2 km/h (1 Bft) 100,00 %
12.12.2020 10:16 5,3 C 5,0 C 4,4 C 99 % 996,6 hPa 0,0 l/m 0 min 0 min 24 W/m 6,4 km/h (2 Bft) 95,74 %
12.12.2020 10:18 5,3 C 5,0 C 4,4 C 99 % 996,6 hPa 0,0 l/m 0 min 0 min 25 W/m 6,4 km/h (2 Bft) 100,00 %
12.12.2020 10:20 5,3 C 5,0 C 4,4 C 99 % 996,6 hPa 0,0 l/m 0 min 0 min 24 W/m 6,4 km/h (2 Bft) 100,00 %
12.12.2020 10:22 5,3 C 5,0 C 4,4 C 99 % 996,6 hPa 0,0 l/m 0 min 0 min 25 W/m 6,4 km/h (2 Bft) 100,00 %
12.12.2020 10:24 5,4 C 5,0 C 4,4 C 99 % 996,7 hPa 0,0 l/m 0 min 0 min 25 W/m 3,2 km/h (1 Bft) 97,83 %
12.12.2020 10:26 5,4 C 5,0 C 4,4 C 99 % 996,7 hPa 0,0 l/m 0 min 0 min 26 W/m 0,0 km/h (0 Bft) 100,00 %
12.12.2020 10:28 5,4 C 5,0 C 4,4 C 99 % 996,7 hPa 0,0 l/m 0 min 0 min 26 W/m 0,0 km/h (0 Bft) 100,00 %
12.12.2020 10:30 5,4 C 5,0 C 4,4 C 99 % 996,7 hPa 0,0 l/m 0 min 0 min 26 W/m 3,2 km/h (1 Bft) 100,00 %
12.12.2020 10:32 5,4 C 5,0 C 4,4 C 99 % 996,7 hPa 0,0 l/m 0 min 0 min 26 W/m 3,2 km/h (1 Bft) 100,00 %
12.12.2020 10:34 5,4 C 5,0 C 4,4 C 99 % 996,8 hPa 0,0 l/m 0 min 0 min 26 W/m 6,4 km/h (2 Bft) 100,00 %
12.12.2020 10:36 5,4 C 5,0 C 4,4 C 99 % 996,8 hPa 0,0 l/m 0 min 0 min 26 W/m 3,2 km/h (1 Bft) 95,65 %
12.12.2020 10:38 5,4 C 5,0 C 4,4 C 99 % 996,8 hPa 0,0 l/m 0 min 0 min 23 W/m 3,2 km/h (1 Bft) 97,87 %
12.12.2020 10:40 5,4 C 5,0 C 4,4 C 99 % 996,8 hPa 0,0 l/m 0 min 0 min 24 W/m 3,2 km/h (1 Bft) 93,62 %
12.12.2020 10:42 5,5 C 5,0 C 4,4 C 99 % 997,0 hPa 0,0 l/m 0 min 0 min 24 W/m 6,4 km/h (2 Bft) 97,87 %
12.12.2020 10:44 5,5 C 5,0 C 4,4 C 99 % 997,0 hPa 0,0 l/m 0 min 0 min 24 W/m 0,0 km/h (0 Bft) 97,87 %
12.12.2020 10:46 5,5 C 5,0 C 4,4 C 99 % 997,0 hPa 0,0 l/m 0 min 0 min 25 W/m 0,0 km/h (0 Bft) 97,87 %
12.12.2020 10:48 5,5 C 5,0 C 4,4 C 99 % 997,0 hPa 0,0 l/m 0 min 0 min 28 W/m 0,0 km/h (0 Bft) 97,83 %
12.12.2020 10:50 5,5 C 5,0 C 4,4 C 99 % 997,0 hPa 0,0 l/m 0 min 0 min 30 W/m 3,2 km/h (1 Bft) 97,87 %
12.12.2020 10:52 5,5 C 5,0 C 4,4 C 99 % 997,1 hPa 0,0 l/m 0 min 0 min 29 W/m 3,2 km/h (1 Bft) 95,74 %
12.12.2020 10:54 5,5 C 5,0 C 4,4 C 99 % 997,1 hPa 0,0 l/m 0 min 0 min 29 W/m 6,4 km/h (2 Bft) 95,74 %
12.12.2020 10:56 5,5 C 5,0 C 4,4 C 99 % 997,1 hPa 0,0 l/m 0 min 0 min 33 W/m 3,2 km/h (1 Bft) 97,87 %
12.12.2020 10:58 5,5 C 5,0 C 4,4 C 99 % 997,1 hPa 0,0 l/m 0 min 0 min 36 W/m 0,0 km/h (0 Bft) 97,87 %
12.12.2020 11:00 5,5 C 5,0 C 4,4 C 99 % 997,1 hPa 0,0 l/m 0 min 0 min 37 W/m 6,4 km/h (2 Bft) 97,83 %
12.12.2020 11:02 5,5 C 5,0 C 4,4 C 99 % 997,2 hPa 0,0 l/m 0 min 0 min 42 W/m 3,2 km/h (1 Bft) 97,87 %
12.12.2020 11:04 5,5 C 5,0 C 4,4 C 100 % 997,2 hPa 0,0 l/m 0 min 0 min 40 W/m 3,2 km/h (1 Bft) 97,87 %
12.12.2020 11:06 5,6 C 5,0 C 4,4 C 100 % 997,2 hPa 0,0 l/m 0 min 0 min 43 W/m 3,2 km/h (1 Bft) 97,87 %
12.12.2020 11:08 5,6 C 5,0 C 4,9 C 100 % 997,2 hPa 0,0 l/m 0 min 0 min 45 W/m 3,2 km/h (1 Bft) 97,87 %
12.12.2020 11:10 5,6 C 5,0 C 4,9 C 100 % 997,2 hPa 0,0 l/m 0 min 0 min 47 W/m 6,4 km/h (2 Bft) 95,74 %
12.12.2020 11:12 5,6 C 5,0 C 4,9 C 100 % 997,2 hPa 0,0 l/m 0 min 0 min 43 W/m 0,0 km/h (0 Bft) 97,83 %
12.12.2020 11:14 5,6 C 5,0 C 4,9 C 100 % 997,3 hPa 0,0 l/m 0 min 0 min 35 W/m 3,2 km/h (1 Bft) 97,87 %
12.12.2020 11:16 5,6 C 5,0 C 4,4 C 100 % 997,3 hPa 0,0 l/m 0 min 0 min 31 W/m 3,2 km/h (1 Bft) 95,74 %
12.12.2020 11:18 5,7 C 5,0 C 4,9 C 100 % 997,3 hPa 0,0 l/m 0 min 0 min 34 W/m 6,4 km/h (2 Bft) 93,62 %
12.12.2020 11:20 5,7 C 5,0 C 4,9 C 100 % 997,2 hPa 0,0 l/m 0 min 0 min 39 W/m 3,2 km/h (1 Bft) 97,87 %
12.12.2020 11:22 5,7 C 5,6 C 4,9 C 100 % 997,2 hPa 0,0 l/m 0 min 0 min 46 W/m 0,0 km/h (0 Bft) 100,00 %
12.12.2020 11:24 5,7 C 5,6 C 4,9 C 100 % 997,3 hPa 0,0 l/m 0 min 0 min 51 W/m 0,0 km/h (0 Bft) 100,00 %
12.12.2020 11:26 5,8 C 5,6 C 4,9 C 99 % 997,3 hPa 0,0 l/m 0 min 0 min 51 W/m 3,2 km/h (1 Bft) 97,87 %
12.12.2020 11:28 5,8 C 5,6 C 4,9 C 99 % 997,4 hPa 0,0 l/m 0 min 0 min 50 W/m 3,2 km/h (1 Bft) 97,87 %
12.12.2020 11:30 5,8 C 5,6 C 4,9 C 99 % 997,3 hPa 0,0 l/m 0 min 0 min 47 W/m 0,0 km/h (0 Bft) 97,87 %
12.12.2020 11:32 5,8 C 5,6 C 4,9 C 99 % 997,3 hPa 0,0 l/m 0 min 0 min 48 W/m 0,0 km/h (0 Bft) 95,74 %
12.12.2020 11:34 5,8 C 5,6 C 4,9 C 99 % 997,3 hPa 0,0 l/m 0 min 0 min 59 W/m 3,2 km/h (1 Bft) 97,87 %
12.12.2020 11:36 5,8 C 5,6 C 4,9 C 99 % 997,3 hPa 0,0 l/m 0 min 0 min 64 W/m 3,2 km/h (1 Bft) 97,83 %
12.12.2020 11:38 5,9 C 5,6 C 4,9 C 99 % 997,3 hPa 0,0 l/m 0 min 0 min 57 W/m 0,0 km/h (0 Bft) 97,87 %
12.12.2020 11:40 5,9 C 5,6 C 4,9 C 99 % 997,4 hPa 0,0 l/m 0 min 0 min 65 W/m 6,4 km/h (2 Bft) 95,74 %
12.12.2020 11:42 5,9 C 5,6 C 4,9 C 99 % 997,4 hPa 0,0 l/m 0 min 0 min 53 W/m 6,4 km/h (2 Bft) 93,62 %
12.12.2020 11:44 5,9 C 5,6 C 4,9 C 99 % 997,5 hPa 0,0 l/m 0 min 0 min 32 W/m 12,9 km/h (3 Bft) 97,87 %
12.12.2020 11:46 5,9 C 5,6 C 4,9 C 99 % 997,5 hPa 0,0 l/m 0 min 0 min 33 W/m 3,2 km/h (1 Bft) 97,83 %
12.12.2020 11:48 5,9 C 5,6 C 4,9 C 100 % 997,5 hPa 0,0 l/m 0 min 0 min 40 W/m 12,9 km/h (3 Bft) 95,74 %
12.12.2020 11:50 5,9 C 5,6 C 4,9 C 100 % 997,5 hPa 0,0 l/m 0 min 0 min 47 W/m 3,2 km/h (1 Bft) 97,87 %
12.12.2020 11:52 6,0 C 5,6 C 4,9 C 100 % 997,5 hPa 0,0 l/m 0 min 0 min 49 W/m 3,2 km/h (1 Bft) 97,87 %
12.12.2020 11:54 6,0 C 5,6 C 4,9 C 100 % 997,6 hPa 0,0 l/m 0 min 0 min 51 W/m 3,2 km/h (1 Bft) 97,87 %
12.12.2020 11:56 6,0 C 5,6 C 4,9 C 100 % 997,6 hPa 0,0 l/m 0 min 0 min 54 W/m 6,4 km/h (2 Bft) 95,74 %
12.12.2020 11:58 6,0 C 5,6 C 4,9 C 100 % 997,6 hPa 0,0 l/m 0 min 0 min 54 W/m 6,4 km/h (2 Bft) 97,83 %
12.12.2020 12:00 6,0 C 5,6 C 4,9 C 100 % 997,6 hPa 0,0 l/m 0 min 0 min 55 W/m 12,9 km/h (3 Bft) 97,87 %
12.12.2020 12:02 6,0 C 5,6 C 4,9 C 100 % 997,6 hPa 0,0 l/m 0 min 0 min 55 W/m 0,0 km/h (0 Bft) 97,87 %
12.12.2020 12:04 6,0 C 5,6 C 4,9 C 100 % 997,6 hPa 0,0 l/m 0 min 0 min 54 W/m 0,0 km/h (0 Bft) 97,87 %
12.12.2020 12:08 6,0 C 5,6 C 4,9 C 100 % 997,6 hPa 0,0 l/m 0 min 0 min 51 W/m 6,4 km/h (2 Bft) 96,81 %
12.12.2020 12:10 6,0 C 5,6 C 4,9 C 100 % 997,6 hPa 0,0 l/m 0 min 0 min 54 W/m 12,9 km/h (3 Bft) 95,65 %
12.12.2020 12:12 6,0 C 5,6 C 5,5 C 100 % 997,6 hPa 0,0 l/m 0 min 0 min 60 W/m 0,0 km/h (0 Bft) 97,87 %
12.12.2020 12:14 6,1 C 6,1 C 5,5 C 100 % 997,6 hPa 0,0 l/m 0 min 0 min 64 W/m 6,4 km/h (2 Bft) 97,87 %
12.12.2020 12:16 6,1 C 6,1 C 5,5 C 100 % 997,6 hPa 0,0 l/m 0 min 0 min 64 W/m 0,0 km/h (0 Bft) 100,00 %
12.12.2020 12:18 6,1 C 6,1 C 5,5 C 100 % 997,7 hPa 0,0 l/m 0 min 0 min 58 W/m 12,9 km/h (3 Bft) 100,00 %
12.12.2020 12:20 6,1 C 6,1 C 5,5 C 100 % 997,7 hPa 0,0 l/m 0 min 0 min 54 W/m 12,9 km/h (3 Bft) 97,87 %
12.12.2020 12:22 6,1 C 5,6 C 5,5 C 100 % 997,7 hPa 0,0 l/m 0 min 0 min 52 W/m 12,9 km/h (3 Bft) 100,00 %
12.12.2020 12:24 6,1 C 6,1 C 5,5 C 100 % 997,7 hPa 0,0 l/m 0 min 0 min 57 W/m 6,4 km/h (2 Bft) 100,00 %
12.12.2020 12:26 6,2 C 6,1 C 5,5 C 100 % 997,7 hPa 0,0 l/m 0 min 0 min 62 W/m 3,2 km/h (1 Bft) 100,00 %
12.12.2020 12:28 6,2 C 6,1 C 5,5 C 100 % 997,7 hPa 0,0 l/m 0 min 0 min 63 W/m 3,2 km/h (1 Bft) 100,00 %
12.12.2020 12:30 6,2 C 6,1 C 5,5 C 100 % 997,7 hPa 0,0 l/m 0 min 0 min 63 W/m 3,2 km/h (1 Bft) 100,00 %
12.12.2020 12:32 6,3 C 6,1 C 5,5 C 100 % 997,7 hPa 0,0 l/m 0 min 0 min 63 W/m 3,2 km/h (1 Bft) 100,00 %
12.12.2020 12:34 6,3 C 6,1 C 5,5 C 100 % 997,7 hPa 0,0 l/m 0 min 0 min 67 W/m 3,2 km/h (1 Bft) 100,00 %
12.12.2020 12:36 6,3 C 6,1 C 5,5 C 100 % 997,7 hPa 0,0 l/m 0 min 0 min 74 W/m 6,4 km/h (2 Bft) 97,87 %
12.12.2020 12:38 6,3 C 6,1 C 5,5 C 100 % 997,8 hPa 0,0 l/m 0 min 0 min 79 W/m 12,9 km/h (3 Bft) 100,00 %
12.12.2020 12:40 6,3 C 6,1 C 5,5 C 100 % 997,7 hPa 0,0 l/m 0 min 0 min 77 W/m 12,9 km/h (3 Bft) 100,00 %
12.12.2020 12:42 6,3 C 6,1 C 5,5 C 100 % 997,7 hPa 0,0 l/m 0 min 0 min 76 W/m 16,1 km/h (3 Bft) 97,87 %
12.12.2020 12:44 6,4 C 6,1 C 5,5 C 100 % 997,7 hPa 0,0 l/m 0 min 0 min 64 W/m 12,9 km/h (3 Bft) 100,00 %
12.12.2020 12:46 6,4 C 6,1 C 5,5 C 100 % 997,8 hPa 0,0 l/m 0 min 0 min 55 W/m 0,0 km/h (0 Bft) 100,00 %
12.12.2020 12:48 6,4 C 6,1 C 5,5 C 100 % 997,7 hPa 0,0 l/m 0 min 0 min 48 W/m 3,2 km/h (1 Bft) 100,00 %
12.12.2020 12:50 6,4 C 6,1 C 5,5 C 100 % 997,8 hPa 0,0 l/m 0 min 0 min 46 W/m 3,2 km/h (1 Bft) 100,00 %
12.12.2020 12:52 6,4 C 6,1 C 5,5 C 100 % 997,8 hPa 0,0 l/m 0 min 0 min 41 W/m 3,2 km/h (1 Bft) 100,00 %
12.12.2020 12:54 6,4 C 6,1 C 5,5 C 100 % 997,8 hPa 0,0 l/m 0 min 0 min 37 W/m 0,0 km/h (0 Bft) 100,00 %
12.12.2020 12:56 6,4 C 6,1 C 5,5 C 100 % 997,8 hPa 0,0 l/m 0 min 0 min 34 W/m 0,0 km/h (0 Bft) 100,00 %
12.12.2020 12:58 6,4 C 6,1 C 5,5 C 100 % 997,9 hPa 0,0 l/m 0 min 0 min 35 W/m 0,0 km/h (0 Bft) 100,00 %
12.12.2020 13:00 6,4 C 6,1 C 5,5 C 100 % 997,9 hPa 0,0 l/m 0 min 0 min 39 W/m 3,2 km/h (1 Bft) 97,87 %
12.12.2020 13:02 6,4 C 6,1 C 5,5 C 100 % 997,9 hPa 0,0 l/m 0 min 0 min 42 W/m 0,0 km/h (0 Bft) 100,00 %
12.12.2020 13:04 6,4 C 6,1 C 5,5 C 100 % 997,9 hPa 0,0 l/m 0 min 0 min 44 W/m 12,9 km/h (3 Bft) 100,00 %
12.12.2020 13:06 6,4 C 6,1 C 5,5 C 100 % 997,9 hPa 0,0 l/m 0 min 0 min 47 W/m 6,4 km/h (2 Bft) 100,00 %
12.12.2020 13:08 6,4 C 6,1 C 5,5 C 100 % 998,0 hPa 0,0 l/m 0 min 0 min 53 W/m 6,4 km/h (2 Bft) 97,83 %
12.12.2020 13:10 6,5 C 6,1 C 5,5 C 100 % 998,0 hPa 0,0 l/m 0 min 0 min 52 W/m 0,0 km/h (0 Bft) 100,00 %
12.12.2020 13:12 6,5 C 6,1 C 5,5 C 100 % 998,0 hPa 0,0 l/m 0 min 0 min 51 W/m 12,9 km/h (3 Bft) 95,74 %
12.12.2020 13:14 6,5 C 6,1 C 5,5 C 100 % 998,0 hPa 0,0 l/m 0 min 0 min 51 W/m 0,0 km/h (0 Bft) 100,00 %
12.12.2020 13:16 6,5 C 6,1 C 5,5 C 100 % 998,0 hPa 0,0 l/m 0 min 0 min 49 W/m 0,0 km/h (0 Bft) 100,00 %
12.12.2020 13:18 6,5 C 6,1 C 5,5 C 100 % 998,0 hPa 0,0 l/m 0 min 0 min 49 W/m 3,2 km/h (1 Bft) 97,87 %
12.12.2020 13:20 6,5 C 6,1 C 5,5 C 100 % 998,1 hPa 0,0 l/m 0 min 0 min 47 W/m 0,0 km/h (0 Bft) 97,83 %
12.12.2020 13:22 6,5 C 6,1 C 5,5 C 100 % 998,1 hPa 0,0 l/m 0 min 0 min 44 W/m 6,4 km/h (2 Bft) 97,87 %
12.12.2020 13:24 6,5 C 6,1 C 5,5 C 100 % 998,2 hPa 0,0 l/m 0 min 0 min 40 W/m 0,0 km/h (0 Bft) 97,87 %
12.12.2020 13:26 6,5 C 6,1 C 5,5 C 100 % 998,2 hPa 0,0 l/m 0 min 0 min 42 W/m 0,0 km/h (0 Bft) 97,87 %
12.12.2020 13:28 6,5 C 6,1 C 5,5 C 100 % 998,2 hPa 0,0 l/m 0 min 0 min 46 W/m 3,2 km/h (1 Bft) 96,23 %
12.12.2020 13:30 6,5 C 6,1 C 5,5 C 100 % 998,2 hPa 0,0 l/m 0 min 0 min 47 W/m 0,0 km/h (0 Bft) 97,87 %
12.12.2020 13:32 6,5 C 6,1 C 5,5 C 100 % 998,2 hPa 0,0 l/m 0 min 0 min 54 W/m 0,0 km/h (0 Bft) 95,74 %
12.12.2020 13:34 6,6 C 6,1 C 5,5 C 100 % 998,2 hPa 0,0 l/m 0 min 0 min 60 W/m 0,0 km/h (0 Bft) 97,87 %
12.12.2020 13:36 6,6 C 6,7 C 6,1 C 100 % 998,3 hPa 0,0 l/m 0 min 0 min 60 W/m 0,0 km/h (0 Bft) 97,87 %
12.12.2020 13:38 6,6 C 6,1 C 6,1 C 100 % 998,3 hPa 0,0 l/m 0 min 0 min 59 W/m 3,2 km/h (1 Bft) 95,74 %
12.12.2020 13:40 6,6 C 6,1 C 5,5 C 100 % 998,3 hPa 0,0 l/m 0 min 0 min 53 W/m 6,4 km/h (2 Bft) 97,83 %
12.12.2020 13:42 6,6 C 6,1 C 5,5 C 100 % 998,3 hPa 0,0 l/m 0 min 0 min 46 W/m 0,0 km/h (0 Bft) 95,74 %
12.12.2020 13:44 6,6 C 6,1 C 5,5 C 100 % 998,4 hPa 0,0 l/m 0 min 0 min 36 W/m 3,2 km/h (1 Bft) 95,74 %
12.12.2020 13:46 6,6 C 6,1 C 5,5 C 100 % 998,4 hPa 0,0 l/m 0 min 0 min 31 W/m 0,0 km/h (0 Bft) 97,87 %
12.12.2020 13:48 6,6 C 6,1 C 5,5 C 100 % 998,4 hPa 0,0 l/m 0 min 0 min 24 W/m 6,4 km/h (2 Bft) 97,87 %
12.12.2020 13:50 6,6 C 6,1 C 5,5 C 100 % 998,4 hPa 0,0 l/m 0 min 0 min 31 W/m 0,0 km/h (0 Bft) 97,87 %
12.12.2020 13:52 6,7 C 6,1 C 5,5 C 100 % 998,4 hPa 0,0 l/m 0 min 0 min 37 W/m 0,0 km/h (0 Bft) 95,65 %
12.12.2020 13:54 6,7 C 6,1 C 5,5 C 100 % 998,5 hPa 0,0 l/m 0 min 0 min 35 W/m 0,0 km/h (0 Bft) 95,74 %
12.12.2020 13:56 6,7 C 6,1 C 5,5 C 100 % 998,5 hPa 0,0 l/m 0 min 0 min 32 W/m 0,0 km/h (0 Bft) 95,74 %
12.12.2020 13:58 6,7 C 6,1 C 5,5 C 100 % 998,5 hPa 0,0 l/m 0 min 0 min 32 W/m 0,0 km/h (0 Bft) 97,87 %
12.12.2020 14:00 6,7 C 6,1 C 6,1 C 100 % 998,5 hPa 0,0 l/m 0 min 0 min 33 W/m 0,0 km/h (0 Bft) 95,74 %
12.12.2020 14:02 6,8 C 6,1 C 6,1 C 100 % 998,5 hPa 0,0 l/m 0 min 0 min 34 W/m 0,0 km/h (0 Bft) 93,62 %
12.12.2020 14:04 6,7 C 6,7 C 6,1 C 100 % 998,5 hPa 0,0 l/m 0 min 0 min 37 W/m 0,0 km/h (0 Bft) 100,00 %
12.12.2020 14:06 6,8 C 6,1 C 6,1 C 100 % 998,5 hPa 0,0 l/m 0 min 0 min 35 W/m 0,0 km/h (0 Bft) 100,00 %
12.12.2020 14:08 6,8 C 6,1 C 6,1 C 100 % 998,5 hPa 0,0 l/m 0 min 0 min 32 W/m 0,0 km/h (0 Bft) 100,00 %
12.12.2020 14:10 6,8 C 6,1 C 6,1 C 100 % 998,6 hPa 0,0 l/m 0 min 0 min 29 W/m 0,0 km/h (0 Bft) 100,00 %
12.12.2020 14:12 6,8 C 6,1 C 6,1 C 100 % 998,6 hPa 0,0 l/m 0 min 0 min 28 W/m 0,0 km/h (0 Bft) 97,87 %
12.12.2020 14:14 6,8 C 6,1 C 5,5 C 100 % 998,6 hPa 0,0 l/m 0 min 0 min 27 W/m 0,0 km/h (0 Bft) 97,87 %
12.12.2020 14:16 6,8 C 6,7 C 6,1 C 100 % 998,6 hPa 0,0 l/m 0 min 0 min 30 W/m 0,0 km/h (0 Bft) 97,87 %
12.12.2020 14:18 6,8 C 6,7 C 6,1 C 100 % 998,6 hPa 0,0 l/m 0 min 0 min 33 W/m 0,0 km/h (0 Bft) 97,83 %
12.12.2020 14:20 6,8 C 6,7 C 6,1 C 100 % 998,6 hPa 0,0 l/m 0 min 0 min 30 W/m 0,0 km/h (0 Bft) 95,74 %
12.12.2020 14:22 6,8 C 6,7 C 6,1 C 100 % 998,7 hPa 0,0 l/m 0 min 0 min 28 W/m 0,0 km/h (0 Bft) 97,87 %
12.12.2020 14:24 6,8 C 6,7 C 6,1 C 100 % 998,7 hPa 0,0 l/m 0 min 0 min 25 W/m 0,0 km/h (0 Bft) 97,87 %
12.12.2020 14:26 6,8 C 6,7 C 6,1 C 100 % 998,6 hPa 0,0 l/m 0 min 0 min 21 W/m 0,0 km/h (0 Bft) 97,87 %
12.12.2020 14:28 6,9 C 6,7 C 6,1 C 100 % 998,7 hPa 0,0 l/m 0 min 0 min 22 W/m 0,0 km/h (0 Bft) 97,87 %
12.12.2020 14:30 6,9 C 6,7 C 6,1 C 100 % 998,7 hPa 0,0 l/m 0 min 0 min 25 W/m 0,0 km/h (0 Bft) 97,83 %
12.12.2020 14:32 6,9 C 6,7 C 6,1 C 100 % 998,7 hPa 0,0 l/m 0 min 0 min 30 W/m 0,0 km/h (0 Bft) 97,87 %
12.12.2020 14:34 6,9 C 6,7 C 6,1 C 100 % 998,8 hPa 0,0 l/m 0 min 0 min 32 W/m 0,0 km/h (0 Bft) 95,74 %
12.12.2020 14:36 6,9 C 6,7 C 6,1 C 100 % 998,8 hPa 0,0 l/m 0 min 0 min 26 W/m 0,0 km/h (0 Bft) 95,74 %
12.12.2020 14:38 6,9 C 6,7 C 6,1 C 100 % 998,8 hPa 0,0 l/m 0 min 0 min 27 W/m 0,0 km/h (0 Bft) 97,87 %
12.12.2020 14:40 6,9 C 6,7 C 6,1 C 100 % 998,8 hPa 0,0 l/m 0 min 0 min 32 W/m 0,0 km/h (0 Bft) 97,96 %
12.12.2020 14:42 6,9 C 6,7 C 6,1 C 100 % 998,8 hPa 0,0 l/m 0 min 0 min 27 W/m 0,0 km/h (0 Bft) 97,83 %
12.12.2020 14:44 6,9 C 6,7 C 6,1 C 100 % 998,8 hPa 0,0 l/m 0 min 0 min 25 W/m 0,0 km/h (0 Bft) 95,74 %
12.12.2020 14:46 6,9 C 6,7 C 6,1 C 100 % 998,9 hPa 0,0 l/m 0 min 0 min 25 W/m 0,0 km/h (0 Bft) 97,87 %
12.12.2020 14:48 6,9 C 6,7 C 6,1 C 100 % 998,9 hPa 0,0 l/m 0 min 0 min 22 W/m 0,0 km/h (0 Bft) 97,87 %
12.12.2020 14:50 7,0 C 6,7 C 6,1 C 100 % 998,9 hPa 0,0 l/m 0 min 0 min 21 W/m 0,0 km/h (0 Bft) 95,74 %
12.12.2020 14:52 7,0 C 6,7 C 6,1 C 100 % 999,0 hPa 0,0 l/m 0 min 0 min 21 W/m 0,0 km/h (0 Bft) 97,87 %
12.12.2020 14:54 7,0 C 6,7 C 6,1 C 100 % 999,0 hPa 0,0 l/m 0 min 0 min 21 W/m 0,0 km/h (0 Bft) 97,83 %
12.12.2020 14:56 7,0 C 6,7 C 6,1 C 100 % 999,0 hPa 0,0 l/m 0 min 0 min 24 W/m 0,0 km/h (0 Bft) 100,00 %
12.12.2020 14:58 7,0 C 6,7 C 6,1 C 100 % 999,0 hPa 0,0 l/m 0 min 0 min 25 W/m 0,0 km/h (0 Bft) 100,00 %
12.12.2020 15:00 7,0 C 6,7 C 6,1 C 100 % 999,1 hPa 0,0 l/m 0 min 0 min 25 W/m 0,0 km/h (0 Bft) 100,00 %
12.12.2020 15:02 7,0 C 6,7 C 6,1 C 100 % 999,1 hPa 0,0 l/m 0 min 0 min 25 W/m 0,0 km/h (0 Bft) 100,00 %
12.12.2020 15:04 7,0 C 6,7 C 6,1 C 100 % 999,1 hPa 0,0 l/m 0 min 0 min 27 W/m 0,0 km/h (0 Bft) 95,74 %
12.12.2020 15:06 7,0 C 6,7 C 6,1 C 100 % 999,1 hPa 0,0 l/m 0 min 0 min 34 W/m 0,0 km/h (0 Bft) 100,00 %
12.12.2020 15:08 7,0 C 6,7 C 6,1 C 100 % 999,1 hPa 0,0 l/m 0 min 0 min 34 W/m 0,0 km/h (0 Bft) 97,87 %
12.12.2020 15:10 7,0 C 6,7 C 6,1 C 100 % 999,1 hPa 0,0 l/m 0 min 0 min 32 W/m 0,0 km/h (0 Bft) 100,00 %
12.12.2020 15:12 7,1 C 6,7 C 6,1 C 100 % 999,1 hPa 0,0 l/m 0 min 0 min 30 W/m 0,0 km/h (0 Bft) 97,73 %
12.12.2020 15:14 7,1 C 6,7 C 6,1 C 100 % 999,2 hPa 0,0 l/m 0 min 0 min 24 W/m 0,0 km/h (0 Bft) 100,00 %
12.12.2020 15:16 7,1 C 6,7 C 6,1 C 100 % 999,1 hPa 0,0 l/m 0 min 0 min 16 W/m 0,0 km/h (0 Bft) 97,87 %
12.12.2020 15:18 7,1 C 6,7 C 6,1 C 100 % 999,1 hPa 0,0 l/m 0 min 0 min 15 W/m 0,0 km/h (0 Bft) 100,00 %
12.12.2020 15:20 7,1 C 6,7 C 6,1 C 100 % 999,2 hPa 0,0 l/m 0 min 0 min 16 W/m 0,0 km/h (0 Bft) 97,87 %
12.12.2020 15:22 7,1 C 6,7 C 6,1 C 100 % 999,2 hPa 0,0 l/m 0 min 0 min 14 W/m 6,4 km/h (2 Bft) 100,00 %
12.12.2020 15:24 7,1 C 6,7 C 6,1 C 100 % 999,3 hPa 0,0 l/m 0 min 0 min 11 W/m 3,2 km/h (1 Bft) 100,00 %
12.12.2020 15:26 7,1 C 6,7 C 6,1 C 100 % 999,3 hPa 0,0 l/m 0 min 0 min 8 W/m 0,0 km/h (0 Bft) 100,00 %
12.12.2020 15:28 7,1 C 6,7 C 6,1 C 100 % 999,3 hPa 0,0 l/m 0 min 0 min 7 W/m 0,0 km/h (0 Bft) 100,00 %
12.12.2020 15:30 7,1 C 6,7 C 6,1 C 100 % 999,3 hPa 0,0 l/m 0 min 0 min 6 W/m 0,0 km/h (0 Bft) 100,00 %
12.12.2020 15:32 7,1 C 6,7 C 6,1 C 100 % 999,4 hPa 0,0 l/m 0 min 0 min 5 W/m 0,0 km/h (0 Bft) 100,00 %
12.12.2020 15:34 7,1 C 6,7 C 6,1 C 100 % 999,4 hPa 0,0 l/m 0 min 0 min 5 W/m 0,0 km/h (0 Bft) 95,74 %
12.12.2020 15:36 7,1 C 6,7 C 6,1 C 100 % 999,4 hPa 0,0 l/m 0 min 0 min 5 W/m 0,0 km/h (0 Bft) 100,00 %
12.12.2020 15:38 7,1 C 6,7 C 6,1 C 100 % 999,4 hPa 0,0 l/m 0 min 0 min 7 W/m 3,2 km/h (1 Bft) 100,00 %
12.12.2020 15:40 7,1 C 6,7 C 6,1 C 100 % 999,4 hPa 0,0 l/m 0 min 0 min 6 W/m 3,2 km/h (1 Bft) 100,00 %
12.12.2020 15:42 7,1 C 6,7 C 6,1 C 100 % 999,5 hPa 0,0 l/m 0 min 0 min 8 W/m 3,2 km/h (1 Bft) 100,00 %
12.12.2020 15:44 7,1 C 6,7 C 6,1 C 100 % 999,5 hPa 0,0 l/m 0 min 0 min 10 W/m 0,0 km/h (0 Bft) 100,00 %
12.12.2020 15:46 7,1 C 6,7 C 6,1 C 100 % 999,5 hPa 0,0 l/m 0 min 0 min 10 W/m 0,0 km/h (0 Bft) 100,00 %
12.12.2020 15:48 7,1 C 6,7 C 6,1 C 100 % 999,6 hPa 0,0 l/m 0 min 0 min 8 W/m 0,0 km/h (0 Bft) 100,00 %
12.12.2020 15:50 7,1 C 6,7 C 6,1 C 100 % 999,6 hPa 0,0 l/m 0 min 0 min 9 W/m 0,0 km/h (0 Bft) 100,00 %
12.12.2020 15:52 7,1 C 6,7 C 6,1 C 100 % 999,6 hPa 0,0 l/m 0 min 0 min 9 W/m 0,0 km/h (0 Bft) 100,00 %
12.12.2020 15:54 7,1 C 6,7 C 6,1 C 100 % 999,6 hPa 0,0 l/m 0 min 0 min 10 W/m 0,0 km/h (0 Bft) 100,00 %
12.12.2020 15:56 7,0 C 6,7 C 6,1 C 100 % 999,6 hPa 0,0 l/m 0 min 0 min 9 W/m 0,0 km/h (0 Bft) 100,00 %
12.12.2020 15:58 7,0 C 6,7 C 6,1 C 100 % 999,7 hPa 0,0 l/m 0 min 0 min 10 W/m 6,4 km/h (2 Bft) 100,00 %
12.12.2020 16:00 7,0 C 6,7 C 6,1 C 100 % 999,7 hPa 0,0 l/m 0 min 0 min 10 W/m 3,2 km/h (1 Bft) 100,00 %
12.12.2020 16:02 7,1 C 6,7 C 6,1 C 100 % 999,7 hPa 0,0 l/m 0 min 0 min 11 W/m 0,0 km/h (0 Bft) 100,00 %
12.12.2020 16:04 7,1 C 6,7 C 6,1 C 100 % 999,7 hPa 0,0 l/m 0 min 0 min 9 W/m 0,0 km/h (0 Bft) 100,00 %
12.12.2020 16:06 7,1 C 6,7 C 6,1 C 100 % 999,8 hPa 0,0 l/m 0 min 0 min 7 W/m 0,0 km/h (0 Bft) 95,74 %
12.12.2020 16:08 7,0 C 6,7 C 6,1 C 100 % 999,8 hPa 0,0 l/m 0 min 0 min 7 W/m 0,0 km/h (0 Bft) 95,74 %
12.12.2020 16:10 7,0 C 6,7 C 6,1 C 100 % 999,9 hPa 0,0 l/m 0 min 0 min 7 W/m 0,0 km/h (0 Bft) 95,74 %
12.12.2020 16:12 7,0 C 6,1 C 6,1 C 100 % 999,9 hPa 0,0 l/m 0 min 0 min 7 W/m 0,0 km/h (0 Bft) 93,62 %
12.12.2020 16:14 7,0 C 6,1 C 6,1 C 100 % 999,9 hPa 0,0 l/m 0 min 0 min 5 W/m 0,0 km/h (0 Bft) 97,87 %
12.12.2020 16:16 7,0 C 6,1 C 6,1 C 100 % 999,9 hPa 0,0 l/m 0 min 0 min 5 W/m 3,2 km/h (1 Bft) 97,83 %
12.12.2020 16:18 7,0 C 6,1 C 6,1 C 100 % 1000,0 hPa 0,0 l/m 0 min 0 min 3 W/m 0,0 km/h (0 Bft) 97,87 %
12.12.2020 16:20 7,0 C 6,1 C 6,1 C 100 % 1000,0 hPa 0,0 l/m 0 min 0 min 0 W/m 0,0 km/h (0 Bft) 97,87 %
12.12.2020 16:22 7,0 C 6,1 C 6,1 C 100 % 1000,0 hPa 0,0 l/m 0 min 0 min 0 W/m 6,4 km/h (2 Bft) 95,74 %
12.12.2020 16:24 7,0 C 6,1 C 6,1 C 100 % 1000,1 hPa 0,0 l/m 0 min 0 min 0 W/m 0,0 km/h (0 Bft) 95,74 %
12.12.2020 16:26 7,0 C 6,1 C 6,1 C 100 % 1000,1 hPa 0,0 l/m 0 min 0 min 0 W/m 0,0 km/h (0 Bft) 97,87 %
12.12.2020 16:28 7,0 C 6,1 C 6,1 C 100 % 1000,1 hPa 0,0 l/m 0 min 0 min 0 W/m 0,0 km/h (0 Bft) 97,83 %
12.12.2020 16:30 7,0 C 6,1 C 6,1 C 100 % 1000,2 hPa 0,0 l/m 0 min 0 min 0 W/m 0,0 km/h (0 Bft) 97,87 %
12.12.2020 16:32 7,0 C 6,1 C 6,1 C 100 % 1000,2 hPa 0,0 l/m 0 min 0 min 0 W/m 0,0 km/h (0 Bft) 95,74 %
12.12.2020 16:34 7,0 C 6,1 C 6,1 C 100 % 1000,3 hPa 0,0 l/m 0 min 0 min 0 W/m 0,0 km/h (0 Bft) 95,74 %
12.12.2020 16:36 7,0 C 6,1 C 6,1 C 100 % 1000,3 hPa 0,0 l/m 0 min 0 min 0 W/m 3,2 km/h (1 Bft) 97,87 %
12.12.2020 16:38 7,0 C 6,1 C 6,1 C 100 % 1000,4 hPa 0,0 l/m 0 min 0 min 0 W/m 0,0 km/h (0 Bft) 97,87 %
12.12.2020 16:40 7,0 C 6,1 C 6,1 C 100 % 1000,3 hPa 0,0 l/m 0 min 2 min 0 W/m 12,9 km/h (3 Bft) 95,65 %
12.12.2020 16:42 7,0 C 6,1 C 6,1 C 100 % 1000,4 hPa 0,0 l/m 0 min 0 min 0 W/m 0,0 km/h (0 Bft) 96,00 %
12.12.2020 16:44 7,0 C 6,1 C 6,1 C 100 % 1000,4 hPa 0,0 l/m 0 min 0 min 0 W/m 0,0 km/h (0 Bft) 97,87 %
12.12.2020 16:46 7,0 C 6,1 C 6,1 C 100 % 1000,4 hPa 0,0 l/m 0 min 0 min 0 W/m 0,0 km/h (0 Bft) 95,74 %
12.12.2020 16:48 7,0 C 6,1 C 6,1 C 100 % 1000,4 hPa 0,0 l/m 0 min 0 min 0 W/m 0,0 km/h (0 Bft) 95,74 %
12.12.2020 16:50 7,0 C 6,1 C 6,1 C 100 % 1000,4 hPa 0,0 l/m 0 min 0 min 0 W/m 0,0 km/h (0 Bft) 95,74 %
12.12.2020 16:52 7,0 C 6,1 C 6,1 C 100 % 1000,4 hPa 0,0 l/m 0 min 0 min 0 W/m 0,0 km/h (0 Bft) 95,65 %
12.12.2020 16:54 7,0 C 6,1 C 6,1 C 100 % 1000,5 hPa 0,0 l/m 0 min 0 min 0 W/m 0,0 km/h (0 Bft) 97,87 %
12.12.2020 16:56 7,0 C 6,1 C 6,1 C 100 % 1000,6 hPa 0,0 l/m 0 min 0 min 0 W/m 0,0 km/h (0 Bft) 97,87 %
12.12.2020 16:58 7,0 C 6,1 C 6,1 C 100 % 1000,6 hPa 0,0 l/m 0 min 0 min 0 W/m 6,4 km/h (2 Bft) 97,87 %
12.12.2020 17:00 7,0 C 6,1 C 6,1 C 100 % 1000,6 hPa 0,0 l/m 0 min 0 min 0 W/m 0,0 km/h (0 Bft) 97,87 %
12.12.2020 17:02 7,0 C 6,7 C 6,1 C 100 % 1000,6 hPa 0,0 l/m 0 min 0 min 0 W/m 0,0 km/h (0 Bft) 97,83 %
12.12.2020 17:04 7,0 C 6,7 C 6,1 C 100 % 1000,6 hPa 0,0 l/m 0 min 0 min 0 W/m 6,4 km/h (2 Bft) 97,87 %
12.12.2020 17:06 7,0 C 6,7 C 6,1 C 100 % 1000,6 hPa 0,0 l/m 0 min 0 min 0 W/m 3,2 km/h (1 Bft) 97,87 %
12.12.2020 17:08 7,0 C 6,7 C 6,1 C 100 % 1000,6 hPa 0,0 l/m 0 min 0 min 0 W/m 0,0 km/h (0 Bft) 97,87 %
12.12.2020 17:10 7,1 C 6,7 C 6,1 C 100 % 1000,6 hPa 0,0 l/m 0 min 0 min 0 W/m 0,0 km/h (0 Bft) 97,87 %
12.12.2020 17:12 7,1 C 6,7 C 6,1 C 100 % 1000,7 hPa 0,0 l/m 0 min 0 min 0 W/m 0,0 km/h (0 Bft) 97,87 %
12.12.2020 17:14 7,1 C 6,7 C 6,1 C 100 % 1000,7 hPa 0,0 l/m 0 min 0 min 0 W/m 6,4 km/h (2 Bft) 97,83 %
12.12.2020 17:16 7,1 C 6,7 C 6,1 C 100 % 1000,7 hPa 0,0 l/m 0 min 0 min 0 W/m 3,2 km/h (1 Bft) 97,87 %
12.12.2020 17:18 7,1 C 6,7 C 6,1 C 100 % 1000,8 hPa 0,0 l/m 0 min 2 min 0 W/m 6,4 km/h (2 Bft) 97,87 %
12.12.2020 17:20 7,1 C 6,7 C 6,1 C 100 % 1000,7 hPa 0,0 l/m 0 min 2 min 0 W/m 6,4 km/h (2 Bft) 93,62 %
12.12.2020 17:22 7,1 C 6,7 C 6,1 C 100 % 1000,8 hPa 0,0 l/m 0 min 2 min 0 W/m 6,4 km/h (2 Bft) 97,87 %
12.12.2020 17:24 7,1 C 6,7 C 6,1 C 100 % 1000,8 hPa 0,0 l/m 0 min 0 min 0 W/m 3,2 km/h (1 Bft) 95,74 %
12.12.2020 17:26 7,1 C 6,7 C 6,1 C 100 % 1000,8 hPa 0,0 l/m 0 min 0 min 0 W/m 0,0 km/h (0 Bft) 95,65 %
12.12.2020 17:28 7,1 C 6,7 C 6,1 C 100 % 1000,8 hPa 0,0 l/m 0 min 2 min 0 W/m 0,0 km/h (0 Bft) 97,87 %
12.12.2020 17:30 7,1 C 6,7 C 6,1 C 100 % 1000,8 hPa 0,0 l/m 0 min 0 min 0 W/m 0,0 km/h (0 Bft) 97,87 %
12.12.2020 17:32 7,1 C 6,7 C 6,1 C 100 % 1000,8 hPa 0,0 l/m 0 min 0 min 0 W/m 0,0 km/h (0 Bft) 97,87 %
12.12.2020 17:34 7,1 C 6,7 C 6,1 C 100 % 1000,8 hPa 0,0 l/m 0 min 0 min 0 W/m 0,0 km/h (0 Bft) 97,87 %
12.12.2020 17:36 7,1 C 6,7 C 6,1 C 100 % 1000,9 hPa 0,0 l/m 0 min 0 min 0 W/m 0,0 km/h (0 Bft) 97,87 %
12.12.2020 17:38 7,1 C 6,7 C 6,1 C 100 % 1000,9 hPa 0,0 l/m 0 min 0 min 0 W/m 0,0 km/h (0 Bft) 100,00 %
12.12.2020 17:40 7,2 C 6,7 C 6,1 C 100 % 1000,9 hPa 0,0 l/m 0 min 0 min 0 W/m 0,0 km/h (0 Bft) 97,87 %
12.12.2020 17:42 7,1 C 6,7 C 6,1 C 100 % 1000,9 hPa 0,0 l/m 0 min 0 min 0 W/m 0,0 km/h (0 Bft) 100,00 %
12.12.2020 17:44 7,2 C 6,7 C 6,1 C 100 % 1000,9 hPa 0,0 l/m 0 min 0 min 0 W/m 0,0 km/h (0 Bft) 100,00 %
12.12.2020 17:46 7,2 C 6,7 C 6,1 C 100 % 1001,0 hPa 0,0 l/m 0 min 0 min 0 W/m 0,0 km/h (0 Bft) 100,00 %
12.12.2020 17:48 7,2 C 6,7 C 6,1 C 100 % 1001,0 hPa 0,0 l/m 0 min 0 min 0 W/m 0,0 km/h (0 Bft) 100,00 %
12.12.2020 17:50 7,2 C 6,7 C 6,1 C 100 % 1001,0 hPa 0,0 l/m 0 min 0 min 0 W/m 0,0 km/h (0 Bft) 100,00 %
12.12.2020 17:52 7,2 C 6,7 C 6,1 C 100 % 1001,0 hPa 0,0 l/m 0 min 0 min 0 W/m 0,0 km/h (0 Bft) 100,00 %
12.12.2020 17:54 7,3 C 6,7 C 6,1 C 100 % 1001,0 hPa 0,0 l/m 0 min 0 min 0 W/m 3,2 km/h (1 Bft) 100,00 %
12.12.2020 17:56 7,3 C 6,7 C 6,1 C 100 % 1001,0 hPa 0,0 l/m 0 min 0 min 0 W/m 0,0 km/h (0 Bft) 95,74 %
12.12.2020 17:58 7,3 C 6,7 C 6,1 C 100 % 1001,1 hPa 0,0 l/m 0 min 0 min 0 W/m 0,0 km/h (0 Bft) 97,87 %
12.12.2020 18:00 7,3 C 6,7 C 6,1 C 100 % 1001,1 hPa 0,0 l/m 0 min 0 min 0 W/m 0,0 km/h (0 Bft) 100,00 %
12.12.2020 18:02 7,3 C 6,7 C 6,1 C 100 % 1001,1 hPa 0,0 l/m 0 min 0 min 0 W/m 0,0 km/h (0 Bft) 100,00 %
12.12.2020 18:04 7,3 C 6,7 C 6,1 C 100 % 1001,1 hPa 0,0 l/m 0 min 0 min 0 W/m 0,0 km/h (0 Bft) 97,87 %
12.12.2020 18:08 7,3 C 6,7 C 6,1 C 100 % 1001,2 hPa 0,0 l/m 0 min 0 min 0 W/m 0,0 km/h (0 Bft) 97,87 %
12.12.2020 18:10 7,3 C 6,7 C 6,1 C 100 % 1001,2 hPa 0,0 l/m 0 min 0 min 0 W/m 0,0 km/h (0 Bft) 100,00 %
12.12.2020 18:12 7,3 C 6,7 C 6,1 C 100 % 1001,3 hPa 0,0 l/m 0 min 0 min 0 W/m 0,0 km/h (0 Bft) 100,00 %
12.12.2020 18:14 7,3 C 6,7 C 6,1 C 100 % 1001,2 hPa 0,0 l/m 0 min 0 min 0 W/m 0,0 km/h (0 Bft) 100,00 %
12.12.2020 18:16 7,3 C 6,7 C 6,1 C 100 % 1001,2 hPa 0,0 l/m 0 min 0 min 0 W/m 0,0 km/h (0 Bft) 100,00 %
12.12.2020 18:18 7,3 C 6,7 C 6,1 C 100 % 1001,3 hPa 0,0 l/m 0 min 0 min 0 W/m 0,0 km/h (0 Bft) 100,00 %
12.12.2020 18:20 7,4 C 6,7 C 6,1 C 100 % 1001,3 hPa 0,0 l/m 0 min 0 min 0 W/m 0,0 km/h (0 Bft) 100,00 %
12.12.2020 18:22 7,4 C 6,7 C 6,1 C 100 % 1001,4 hPa 0,0 l/m 0 min 0 min 0 W/m 0,0 km/h (0 Bft) 100,00 %
12.12.2020 18:24 7,4 C 6,7 C 6,1 C 100 % 1001,4 hPa 0,0 l/m 0 min 2 min 0 W/m 0,0 km/h (0 Bft) 100,00 %
12.12.2020 18:26 7,4 C 6,7 C 6,1 C 100 % 1001,4 hPa 0,0 l/m 0 min 2 min 0 W/m 0,0 km/h (0 Bft) 100,00 %
12.12.2020 18:28 7,4 C 6,7 C 6,1 C 100 % 1001,4 hPa 0,0 l/m 0 min 2 min 0 W/m 0,0 km/h (0 Bft) 97,87 %
12.12.2020 18:30 7,4 C 6,7 C 6,1 C 100 % 1001,4 hPa 0,0 l/m 0 min 2 min 0 W/m 0,0 km/h (0 Bft) 100,00 %
12.12.2020 18:32 7,4 C 6,7 C 6,1 C 100 % 1001,4 hPa 0,0 l/m 0 min 0 min 0 W/m 0,0 km/h (0 Bft) 100,00 %
12.12.2020 18:34 7,4 C 6,7 C 6,1 C 100 % 1001,4 hPa 0,0 l/m 0 min 0 min 0 W/m 0,0 km/h (0 Bft) 100,00 %
12.12.2020 18:36 7,4 C 6,7 C 6,1 C 100 % 1001,5 hPa 0,0 l/m 0 min 0 min 0 W/m 0,0 km/h (0 Bft) 100,00 %
12.12.2020 18:38 7,4 C 6,7 C 6,1 C 100 % 1001,4 hPa 0,0 l/m 0 min 0 min 0 W/m 0,0 km/h (0 Bft) 100,00 %
12.12.2020 18:40 7,4 C 6,7 C 6,1 C 100 % 1001,4 hPa 0,0 l/m 0 min 0 min 0 W/m 0,0 km/h (0 Bft) 100,00 %
12.12.2020 18:42 7,4 C 6,7 C 6,1 C 100 % 1001,4 hPa 0,0 l/m 0 min 0 min 0 W/m 0,0 km/h (0 Bft) 100,00 %
12.12.2020 18:44 7,4 C 6,7 C 6,1 C 100 % 1001,4 hPa 0,0 l/m 0 min 0 min 0 W/m 0,0 km/h (0 Bft) 100,00 %
12.12.2020 18:46 7,4 C 6,7 C 6,1 C 100 % 1001,4 hPa 0,0 l/m 0 min 0 min 0 W/m 0,0 km/h (0 Bft) 100,00 %
12.12.2020 18:48 7,4 C 6,7 C 6,1 C 100 % 1001,5 hPa 0,0 l/m 0 min 0 min 0 W/m 0,0 km/h (0 Bft) 100,00 %
12.12.2020 18:50 7,4 C 6,7 C 6,1 C 100 % 1001,5 hPa 0,0 l/m 0 min 0 min 0 W/m 0,0 km/h (0 Bft) 97,87 %
12.12.2020 18:52 7,4 C 6,7 C 6,1 C 100 % 1001,5 hPa 0,0 l/m 0 min 0 min 0 W/m 0,0 km/h (0 Bft) 97,87 %
12.12.2020 18:54 7,4 C 6,7 C 6,1 C 100 % 1001,6 hPa 0,0 l/m 0 min 0 min 0 W/m 0,0 km/h (0 Bft) 65,96 %
12.12.2020 18:56 7,4 C 6,7 C 6,1 C 100 % 1001,5 hPa 0,2 l/m 0 min 0 min 0 W/m 0,0 km/h (0 Bft) 87,50 %
12.12.2020 18:58 7,4 C 6,7 C 6,1 C 100 % 1001,6 hPa 0,0 l/m 0 min 0 min 0 W/m 0,0 km/h (0 Bft) 95,74 %
12.12.2020 19:00 7,4 C 6,7 C 6,1 C 100 % 1001,6 hPa 0,0 l/m 0 min 0 min 0 W/m 0,0 km/h (0 Bft) 97,83 %
12.12.2020 19:02 7,4 C 6,7 C 6,1 C 100 % 1001,6 hPa 0,0 l/m 0 min 0 min 0 W/m 0,0 km/h (0 Bft) 97,87 %
12.12.2020 19:04 7,4 C 6,7 C 6,1 C 100 % 1001,6 hPa 0,0 l/m 0 min 0 min 0 W/m 0,0 km/h (0 Bft) 97,87 %
12.12.2020 19:06 7,4 C 6,7 C 6,1 C 100 % 1001,7 hPa 0,0 l/m 0 min 0 min 0 W/m 0,0 km/h (0 Bft) 97,87 %
12.12.2020 19:08 7,4 C 6,7 C 6,1 C 100 % 1001,7 hPa 0,0 l/m 0 min 0 min 0 W/m 0,0 km/h (0 Bft) 97,87 %
12.12.2020 19:10 7,4 C 6,7 C 6,1 C 100 % 1001,7 hPa 0,0 l/m 0 min 2 min 0 W/m 0,0 km/h (0 Bft) 97,87 %
12.12.2020 19:12 7,4 C 6,7 C 6,1 C 100 % 1001,7 hPa 0,0 l/m 0 min 0 min 0 W/m 0,0 km/h (0 Bft) 97,83 %
12.12.2020 19:14 7,4 C 6,7 C 6,1 C 100 % 1001,8 hPa 0,0 l/m 0 min 0 min 0 W/m 0,0 km/h (0 Bft) 97,87 %
12.12.2020 19:16 7,4 C 6,7 C 6,1 C 100 % 1001,8 hPa 0,0 l/m 0 min 0 min 0 W/m 0,0 km/h (0 Bft) 93,62 %
12.12.2020 19:18 7,4 C 6,7 C 6,1 C 100 % 1001,8 hPa 0,0 l/m 0 min 0 min 0 W/m 0,0 km/h (0 Bft) 95,74 %
12.12.2020 19:20 7,4 C 6,7 C 6,1 C 100 % 1001,8 hPa 0,0 l/m 0 min 0 min 0 W/m 0,0 km/h (0 Bft) 97,87 %
12.12.2020 19:22 7,4 C 6,7 C 6,1 C 100 % 1001,9 hPa 0,0 l/m 0 min 0 min 0 W/m 0,0 km/h (0 Bft) 95,74 %
12.12.2020 19:24 7,4 C 6,7 C 6,1 C 100 % 1001,9 hPa 0,0 l/m 0 min 0 min 0 W/m 0,0 km/h (0 Bft) 97,83 %
12.12.2020 19:26 7,4 C 6,7 C 6,1 C 100 % 1001,9 hPa 0,0 l/m 0 min 0 min 0 W/m 0,0 km/h (0 Bft) 93,62 %
12.12.2020 19:28 7,4 C 6,7 C 6,1 C 100 % 1001,9 hPa 0,0 l/m 0 min 0 min 0 W/m 0,0 km/h (0 Bft) 95,74 %
12.12.2020 19:30 7,4 C 6,7 C 6,1 C 100 % 1001,9 hPa 0,0 l/m 0 min 0 min 0 W/m 0,0 km/h (0 Bft) 95,74 %
12.12.2020 19:32 7,4 C 6,7 C 6,1 C 100 % 1001,9 hPa 0,0 l/m 0 min 0 min 0 W/m 0,0 km/h (0 Bft) 93,62 %
12.12.2020 19:34 7,4 C 6,7 C 6,1 C 100 % 1001,9 hPa 0,0 l/m 0 min 0 min 0 W/m 0,0 km/h (0 Bft) 95,65 %
12.12.2020 19:36 7,4 C 6,7 C 6,1 C 100 % 1002,0 hPa 0,0 l/m 0 min 0 min 0 W/m 0,0 km/h (0 Bft) 95,74 %
12.12.2020 19:38 7,5 C 6,7 C 6,1 C 100 % 1002,0 hPa 0,0 l/m 0 min 0 min 0 W/m 0,0 km/h (0 Bft) 93,62 %
12.12.2020 19:40 7,5 C 6,7 C 6,1 C 100 % 1002,0 hPa 0,0 l/m 0 min 0 min 0 W/m 0,0 km/h (0 Bft) 95,74 %
12.12.2020 19:42 7,5 C 6,7 C 6,1 C 100 % 1002,0 hPa 0,0 l/m 0 min 0 min 0 W/m 0,0 km/h (0 Bft) 97,87 %
12.12.2020 19:44 7,5 C 6,7 C 6,1 C 100 % 1002,1 hPa 0,0 l/m 0 min 0 min 0 W/m 0,0 km/h (0 Bft) 97,37 %
12.12.2020 19:46 7,5 C 6,7 C 6,1 C 100 % 1002,1 hPa 0,0 l/m 0 min 0 min 0 W/m 0,0 km/h (0 Bft) 97,87 %
12.12.2020 19:48 7,5 C 6,7 C 6,1 C 100 % 1002,2 hPa 0,0 l/m 0 min 0 min 0 W/m 0,0 km/h (0 Bft) 97,87 %
12.12.2020 19:50 7,5 C 6,7 C 6,1 C 100 % 1002,3 hPa 0,0 l/m 0 min 0 min 0 W/m 0,0 km/h (0 Bft) 97,83 %
12.12.2020 19:52 7,5 C 6,7 C 6,1 C 100 % 1002,2 hPa 0,0 l/m 0 min 2 min 0 W/m 0,0 km/h (0 Bft) 97,87 %
12.12.2020 19:54 7,5 C 6,7 C 6,1 C 100 % 1002,3 hPa 0,0 l/m 0 min 2 min 0 W/m 0,0 km/h (0 Bft) 97,87 %
12.12.2020 19:56 7,5 C 6,7 C 6,1 C 100 % 1002,3 hPa 0,0 l/m 0 min 0 min 0 W/m 0,0 km/h (0 Bft) 97,87 %
12.12.2020 19:58 7,5 C 6,7 C 6,1 C 100 % 1002,3 hPa 0,0 l/m 0 min 0 min 0 W/m 0,0 km/h (0 Bft) 97,87 %
12.12.2020 20:00 7,5 C 6,7 C 6,1 C 100 % 1002,3 hPa 0,0 l/m 0 min 2 min 0 W/m 0,0 km/h (0 Bft) 97,87 %
12.12.2020 20:02 7,5 C 6,7 C 6,1 C 100 % 1002,3 hPa 0,0 l/m 0 min 0 min 0 W/m 0,0 km/h (0 Bft) 95,65 %
12.12.2020 20:04 7,5 C 6,7 C 6,1 C 100 % 1002,3 hPa 0,0 l/m 0 min 0 min 0 W/m 0,0 km/h (0 Bft) 97,87 %
12.12.2020 20:06 7,5 C 6,7 C 6,1 C 100 % 1002,3 hPa 0,0 l/m 0 min 0 min 0 W/m 0,0 km/h (0 Bft) 97,87 %
12.12.2020 20:08 7,5 C 6,7 C 6,1 C 100 % 1002,4 hPa 0,0 l/m 0 min 0 min 0 W/m 0,0 km/h (0 Bft) 96,61 %
12.12.2020 20:10 7,5 C 6,7 C 6,1 C 100 % 1002,4 hPa 0,0 l/m 0 min 0 min 0 W/m 0,0 km/h (0 Bft) 97,14 %
12.12.2020 20:12 7,5 C 6,7 C 6,6 C 100 % 1002,5 hPa 0,0 l/m 0 min 0 min 0 W/m 0,0 km/h (0 Bft) 100,00 %
12.12.2020 20:14 7,5 C 6,7 C 6,6 C 100 % 1002,5 hPa 0,0 l/m 0 min 0 min 0 W/m 0,0 km/h (0 Bft) 100,00 %
12.12.2020 20:16 7,5 C 6,7 C 6,6 C 100 % 1002,4 hPa 0,0 l/m 0 min 0 min 0 W/m 0,0 km/h (0 Bft) 100,00 %
12.12.2020 20:18 7,5 C 6,7 C 6,6 C 100 % 1002,5 hPa 0,0 l/m 0 min 0 min 0 W/m 0,0 km/h (0 Bft) 100,00 %
12.12.2020 20:20 7,5 C 6,7 C 6,6 C 100 % 1002,6 hPa 0,0 l/m 0 min 0 min 0 W/m 0,0 km/h (0 Bft) 100,00 %
12.12.2020 20:22 7,6 C 7,2 C 6,6 C 100 % 1002,5 hPa 0,0 l/m 0 min 2 min 0 W/m 0,0 km/h (0 Bft) 95,74 %
12.12.2020 20:24 7,6 C 7,2 C 6,6 C 100 % 1002,6 hPa 0,0 l/m 0 min 0 min 0 W/m 0,0 km/h (0 Bft) 100,00 %
12.12.2020 20:26 7,6 C 7,2 C 6,6 C 100 % 1002,6 hPa 0,0 l/m 0 min 2 min 0 W/m 0,0 km/h (0 Bft) 100,00 %
12.12.2020 20:28 7,6 C 7,2 C 6,6 C 100 % 1002,6 hPa 0,0 l/m 0 min 2 min 0 W/m 0,0 km/h (0 Bft) 100,00 %
12.12.2020 20:30 7,6 C 7,2 C 6,6 C 100 % 1002,6 hPa 0,0 l/m 0 min 2 min 0 W/m 0,0 km/h (0 Bft) 100,00 %
12.12.2020 20:32 7,6 C 7,2 C 6,6 C 100 % 1002,7 hPa 0,0 l/m 0 min 0 min 0 W/m 0,0 km/h (0 Bft) 100,00 %
12.12.2020 20:34 7,6 C 7,2 C 6,6 C 100 % 1002,7 hPa 0,0 l/m 0 min 0 min 0 W/m 0,0 km/h (0 Bft) 97,87 %
12.12.2020 20:36 7,6 C 7,2 C 6,6 C 100 % 1002,7 hPa 0,2 l/m 0 min 0 min 0 W/m 0,0 km/h (0 Bft) 100,00 %
12.12.2020 20:38 7,6 C 7,2 C 6,6 C 100 % 1002,7 hPa 0,0 l/m 0 min 2 min 0 W/m 0,0 km/h (0 Bft) 100,00 %
12.12.2020 20:40 7,7 C 7,2 C 6,6 C 100 % 1002,8 hPa 0,0 l/m 0 min 2 min 0 W/m 0,0 km/h (0 Bft) 100,00 %
12.12.2020 20:42 7,7 C 7,2 C 6,6 C 100 % 1002,8 hPa 0,0 l/m 0 min 2 min 0 W/m 0,0 km/h (0 Bft) 100,00 %
12.12.2020 20:44 7,7 C 7,2 C 6,6 C 100 % 1002,8 hPa 0,0 l/m 0 min 2 min 0 W/m 0,0 km/h (0 Bft) 97,87 %
12.12.2020 20:46 7,7 C 7,2 C 6,6 C 100 % 1002,8 hPa 0,0 l/m 0 min 2 min 0 W/m 0,0 km/h (0 Bft) 97,87 %
12.12.2020 20:48 7,7 C 7,2 C 6,6 C 100 % 1002,8 hPa 0,0 l/m 0 min 2 min 0 W/m 3,2 km/h (1 Bft) 97,87 %
12.12.2020 20:50 7,7 C 7,2 C 6,6 C 100 % 1002,8 hPa 0,0 l/m 0 min 2 min 0 W/m 3,2 km/h (1 Bft) 100,00 %
12.12.2020 20:52 7,8 C 7,2 C 6,6 C 100 % 1002,8 hPa 0,0 l/m 0 min 2 min 0 W/m 0,0 km/h (0 Bft) 97,87 %
12.12.2020 20:54 7,8 C 7,2 C 6,6 C 100 % 1002,9 hPa 0,0 l/m 0 min 2 min 0 W/m 0,0 km/h (0 Bft) 100,00 %
12.12.2020 20:56 7,8 C 7,2 C 6,6 C 100 % 1002,9 hPa 0,0 l/m 0 min 0 min 0 W/m 0,0 km/h (0 Bft) 100,00 %
12.12.2020 20:58 7,8 C 7,2 C 6,6 C 100 % 1002,9 hPa 0,0 l/m 0 min 0 min 0 W/m 0,0 km/h (0 Bft) 100,00 %
12.12.2020 21:00 7,8 C 7,2 C 6,6 C 100 % 1002,9 hPa 0,0 l/m 0 min 2 min 0 W/m 0,0 km/h (0 Bft) 100,00 %
12.12.2020 21:02 7,8 C 7,2 C 6,6 C 100 % 1002,9 hPa 0,0 l/m 0 min 2 min 0 W/m 0,0 km/h (0 Bft) 95,65 %
12.12.2020 21:04 7,8 C 7,2 C 6,6 C 100 % 1002,9 hPa 0,0 l/m 0 min 2 min 0 W/m 3,2 km/h (1 Bft) 100,00 %
12.12.2020 21:06 7,8 C 7,2 C 6,6 C 100 % 1002,9 hPa 0,0 l/m 0 min 0 min 0 W/m 0,0 km/h (0 Bft) 100,00 %
12.12.2020 21:08 7,8 C 7,2 C 6,6 C 100 % 1002,9 hPa 0,0 l/m 0 min 0 min 0 W/m 0,0 km/h (0 Bft) 100,00 %
12.12.2020 21:10 7,8 C 7,2 C 6,6 C 100 % 1003,0 hPa 0,0 l/m 0 min 0 min 0 W/m 0,0 km/h (0 Bft) 97,87 %
12.12.2020 21:12 7,8 C 7,2 C 6,6 C 100 % 1003,0 hPa 0,0 l/m 0 min 0 min 0 W/m 0,0 km/h (0 Bft) 100,00 %
12.12.2020 21:14 7,8 C 7,2 C 6,6 C 100 % 1003,0 hPa 0,0 l/m 0 min 0 min 0 W/m 0,0 km/h (0 Bft) 100,00 %
12.12.2020 21:16 7,8 C 7,2 C 6,6 C 100 % 1003,0 hPa 0,0 l/m 0 min 0 min 0 W/m 0,0 km/h (0 Bft) 100,00 %
12.12.2020 21:18 7,8 C 7,2 C 6,6 C 100 % 1003,0 hPa 0,0 l/m 0 min 0 min 0 W/m 0,0 km/h (0 Bft) 100,00 %
12.12.2020 21:20 7,8 C 7,2 C 6,6 C 100 % 1003,0 hPa 0,0 l/m 0 min 0 min 0 W/m 0,0 km/h (0 Bft) 97,87 %
12.12.2020 21:22 7,8 C 7,2 C 6,6 C 100 % 1003,1 hPa 0,0 l/m 0 min 2 min 0 W/m 0,0 km/h (0 Bft) 100,00 %
12.12.2020 21:24 7,8 C 7,2 C 6,6 C 100 % 1003,0 hPa 0,0 l/m 0 min 0 min 0 W/m 0,0 km/h (0 Bft) 100,00 %
12.12.2020 21:26 7,8 C 7,2 C 6,6 C 100 % 1003,1 hPa 0,0 l/m 0 min 2 min 0 W/m 0,0 km/h (0 Bft) 100,00 %
12.12.2020 21:28 7,8 C 7,2 C 6,6 C 100 % 1003,1 hPa 0,0 l/m 0 min 2 min 0 W/m 0,0 km/h (0 Bft) 100,00 %
12.12.2020 21:30 7,9 C 7,2 C 6,6 C 100 % 1003,1 hPa 0,2 l/m 0 min 0 min 0 W/m 0,0 km/h (0 Bft) 97,87 %
12.12.2020 21:32 7,9 C 7,2 C 6,6 C 100 % 1003,1 hPa 0,0 l/m 0 min 2 min 0 W/m 0,0 km/h (0 Bft) 100,00 %
12.12.2020 21:34 7,9 C 7,2 C 6,6 C 100 % 1003,2 hPa 0,0 l/m 0 min 0 min 0 W/m 0,0 km/h (0 Bft) 100,00 %
12.12.2020 21:36 7,9 C 7,2 C 6,6 C 100 % 1003,2 hPa 0,0 l/m 0 min 0 min 0 W/m 3,2 km/h (1 Bft) 100,00 %
12.12.2020 21:38 7,9 C 7,2 C 6,6 C 100 % 1003,3 hPa 0,0 l/m 0 min 0 min 0 W/m 0,0 km/h (0 Bft) 100,00 %
12.12.2020 21:40 7,9 C 7,2 C 6,6 C 100 % 1003,3 hPa 0,0 l/m 0 min 0 min 0 W/m 0,0 km/h (0 Bft) 97,14 %
12.12.2020 21:42 7,9 C 7,2 C 6,6 C 100 % 1003,3 hPa 0,0 l/m 0 min 0 min 0 W/m 0,0 km/h (0 Bft) 97,87 %
12.12.2020 21:44 7,9 C 7,2 C 6,6 C 100 % 1003,3 hPa 0,0 l/m 0 min 0 min 0 W/m 0,0 km/h (0 Bft) 100,00 %
12.12.2020 21:46 7,9 C 7,2 C 6,6 C 100 % 1003,3 hPa 0,0 l/m 0 min 0 min 0 W/m 0,0 km/h (0 Bft) 97,87 %
12.12.2020 21:48 7,9 C 7,2 C 6,6 C 100 % 1003,3 hPa 0,0 l/m 0 min 0 min 0 W/m 0,0 km/h (0 Bft) 97,87 %
12.12.2020 21:50 7,9 C 7,2 C 6,6 C 100 % 1003,4 hPa 0,0 l/m 0 min 0 min 0 W/m 0,0 km/h (0 Bft) 97,83 %
12.12.2020 21:52 7,9 C 7,2 C 6,6 C 100 % 1003,4 hPa 0,0 l/m 0 min 0 min 0 W/m 0,0 km/h (0 Bft) 72,34 %
12.12.2020 21:54 7,9 C 7,2 C 6,6 C 100 % 1003,4 hPa 0,0 l/m 0 min 0 min 0 W/m 0,0 km/h (0 Bft) 76,74 %
12.12.2020 21:56 7,9 C 7,2 C 6,6 C 100 % 1003,4 hPa 0,0 l/m 0 min 0 min 0 W/m 0,0 km/h (0 Bft) 97,87 %
12.12.2020 21:58 7,9 C 7,2 C 6,6 C 100 % 1003,4 hPa 0,0 l/m 0 min 0 min 0 W/m 0,0 km/h (0 Bft) 97,87 %
12.12.2020 22:00 7,9 C 7,2 C 6,6 C 100 % 1003,4 hPa 0,0 l/m 0 min 0 min 0 W/m 0,0 km/h (0 Bft) 95,74 %
12.12.2020 22:02 7,9 C 7,2 C 6,6 C 100 % 1003,5 hPa 0,0 l/m 0 min 0 min 0 W/m 0,0 km/h (0 Bft) 95,65 %
12.12.2020 22:04 7,9 C 7,2 C 6,6 C 100 % 1003,4 hPa 0,0 l/m 0 min 2 min 0 W/m 0,0 km/h (0 Bft) 97,87 %
12.12.2020 22:06 7,9 C 7,2 C 6,6 C 100 % 1003,4 hPa 0,0 l/m 0 min 2 min 0 W/m 0,0 km/h (0 Bft) 97,87 %
12.12.2020 22:08 7,9 C 7,2 C 6,6 C 100 % 1003,4 hPa 0,0 l/m 0 min 2 min 0 W/m 3,2 km/h (1 Bft) 97,87 %
12.12.2020 22:10 7,9 C 7,2 C 6,6 C 100 % 1003,5 hPa 0,0 l/m 0 min 2 min 0 W/m 12,9 km/h (3 Bft) 95,74 %
12.12.2020 22:12 7,9 C 7,2 C 6,6 C 100 % 1003,5 hPa 0,0 l/m 0 min 2 min 0 W/m 0,0 km/h (0 Bft) 93,48 %
12.12.2020 22:14 7,9 C 7,2 C 6,6 C 100 % 1003,5 hPa 0,0 l/m 0 min 2 min 0 W/m 0,0 km/h (0 Bft) 95,74 %
12.12.2020 22:16 7,9 C 7,2 C 6,6 C 100 % 1003,5 hPa 0,2 l/m 0 min 2 min 0 W/m 0,0 km/h (0 Bft) 95,74 %
12.12.2020 22:18 7,9 C 7,2 C 6,6 C 100 % 1003,5 hPa 0,0 l/m 0 min 2 min 0 W/m 0,0 km/h (0 Bft) 95,74 %
12.12.2020 22:20 7,9 C 7,2 C 6,6 C 100 % 1003,6 hPa 0,0 l/m 0 min 0 min 0 W/m 0,0 km/h (0 Bft) 95,74 %
12.12.2020 22:22 7,9 C 7,2 C 6,6 C 100 % 1003,5 hPa 0,0 l/m 0 min 0 min 0 W/m 0,0 km/h (0 Bft) 93,62 %
12.12.2020 22:24 7,9 C 7,2 C 6,6 C 100 % 1003,5 hPa 0,0 l/m 0 min 0 min 0 W/m 6,4 km/h (2 Bft) 93,48 %
12.12.2020 22:26 7,9 C 7,2 C 6,6 C 100 % 1003,6 hPa 0,0 l/m 0 min 0 min 0 W/m 12,9 km/h (3 Bft) 95,74 %
12.12.2020 22:28 7,9 C 7,2 C 6,6 C 100 % 1003,6 hPa 0,0 l/m 0 min 0 min 0 W/m 0,0 km/h (0 Bft) 93,62 %
12.12.2020 22:30 7,9 C 7,2 C 6,6 C 100 % 1003,7 hPa 0,0 l/m 0 min 0 min 0 W/m 0,0 km/h (0 Bft) 97,87 %
12.12.2020 22:32 7,9 C 7,2 C 6,6 C 100 % 1003,7 hPa 0,0 l/m 0 min 2 min 0 W/m 0,0 km/h (0 Bft) 97,87 %
12.12.2020 22:34 7,9 C 7,2 C 6,6 C 100 % 1003,7 hPa 0,0 l/m 0 min 2 min 0 W/m 0,0 km/h (0 Bft) 95,74 %
12.12.2020 22:36 7,9 C 7,2 C 6,6 C 100 % 1003,7 hPa 0,0 l/m 0 min 2 min 0 W/m 0,0 km/h (0 Bft) 97,83 %
12.12.2020 22:38 7,9 C 7,2 C 6,6 C 100 % 1003,7 hPa 0,0 l/m 0 min 2 min 0 W/m 0,0 km/h (0 Bft) 97,87 %
12.12.2020 22:40 7,9 C 7,2 C 6,6 C 100 % 1003,8 hPa 0,0 l/m 0 min 2 min 0 W/m 0,0 km/h (0 Bft) 97,87 %
12.12.2020 22:42 7,9 C 7,2 C 6,6 C 100 % 1003,8 hPa 0,0 l/m 0 min 0 min 0 W/m 0,0 km/h (0 Bft) 100,00 %
12.12.2020 22:44 7,9 C 7,2 C 6,6 C 100 % 1003,8 hPa 0,0 l/m 0 min 0 min 0 W/m 0,0 km/h (0 Bft) 97,87 %
12.12.2020 22:46 7,9 C 7,2 C 6,6 C 100 % 1003,9 hPa 0,0 l/m 0 min 0 min 0 W/m 0,0 km/h (0 Bft) 97,87 %
12.12.2020 22:48 7,9 C 7,2 C 6,6 C 100 % 1003,9 hPa 0,0 l/m 0 min 0 min 0 W/m 12,9 km/h (3 Bft) 97,83 %
12.12.2020 22:50 7,9 C 7,2 C 6,6 C 100 % 1003,9 hPa 0,0 l/m 0 min 0 min 0 W/m 12,9 km/h (3 Bft) 97,87 %
12.12.2020 22:52 7,9 C 7,2 C 6,6 C 100 % 1004,0 hPa 0,0 l/m 0 min 0 min 0 W/m 6,4 km/h (2 Bft) 97,87 %
12.12.2020 22:54 7,9 C 7,2 C 6,6 C 100 % 1003,9 hPa 0,0 l/m 0 min 0 min 0 W/m 3,2 km/h (1 Bft) 97,87 %
12.12.2020 22:56 7,9 C 7,2 C 6,6 C 100 % 1004,0 hPa 0,0 l/m 0 min 0 min 0 W/m 0,0 km/h (0 Bft) 100,00 %
12.12.2020 22:58 7,9 C 7,2 C 6,6 C 100 % 1004,0 hPa 0,0 l/m 0 min 2 min 0 W/m 0,0 km/h (0 Bft) 100,00 %
12.12.2020 23:00 7,9 C 7,2 C 6,6 C 100 % 1004,0 hPa 0,0 l/m 0 min 2 min 0 W/m 16,1 km/h (3 Bft) 100,00 %
12.12.2020 23:02 7,9 C 7,2 C 6,6 C 100 % 1004,1 hPa 0,0 l/m 0 min 0 min 0 W/m 3,2 km/h (1 Bft) 100,00 %
12.12.2020 23:04 7,9 C 7,2 C 6,6 C 100 % 1004,1 hPa 0,0 l/m 0 min 0 min 0 W/m 0,0 km/h (0 Bft) 100,00 %
12.12.2020 23:06 7,9 C 7,2 C 6,6 C 100 % 1004,1 hPa 0,0 l/m 0 min 0 min 0 W/m 12,9 km/h (3 Bft) 100,00 %
12.12.2020 23:08 7,9 C 7,2 C 6,6 C 100 % 1004,1 hPa 0,0 l/m 0 min 2 min 0 W/m 0,0 km/h (0 Bft) 97,87 %
12.12.2020 23:10 7,9 C 7,2 C 6,6 C 100 % 1004,2 hPa 0,0 l/m 0 min 2 min 0 W/m 0,0 km/h (0 Bft) 97,83 %
12.12.2020 23:12 7,9 C 7,2 C 6,6 C 100 % 1004,2 hPa 0,0 l/m 0 min 2 min 0 W/m 0,0 km/h (0 Bft) 100,00 %
12.12.2020 23:14 7,9 C 7,2 C 6,6 C 100 % 1004,2 hPa 0,0 l/m 0 min 2 min 0 W/m 6,4 km/h (2 Bft) 97,87 %
12.12.2020 23:16 7,9 C 7,2 C 6,6 C 100 % 1004,1 hPa 0,0 l/m 0 min 0 min 0 W/m 6,4 km/h (2 Bft) 100,00 %
12.12.2020 23:18 7,9 C 7,2 C 6,6 C 100 % 1004,2 hPa 0,0 l/m 0 min 2 min 0 W/m 6,4 km/h (2 Bft) 100,00 %
12.12.2020 23:20 7,9 C 7,2 C 6,6 C 100 % 1004,2 hPa 0,0 l/m 0 min 2 min 0 W/m 3,2 km/h (1 Bft) 100,00 %
12.12.2020 23:22 7,9 C 7,2 C 6,6 C 100 % 1004,3 hPa 0,2 l/m 0 min 2 min 0 W/m 6,4 km/h (2 Bft) 100,00 %
12.12.2020 23:24 7,9 C 7,2 C 6,6 C 100 % 1004,3 hPa 0,0 l/m 0 min 2 min 0 W/m 6,4 km/h (2 Bft) 97,87 %
12.12.2020 23:26 7,9 C 7,2 C 6,6 C 100 % 1004,4 hPa 0,0 l/m 0 min 0 min 0 W/m 0,0 km/h (0 Bft) 100,00 %
12.12.2020 23:28 7,9 C 7,2 C 6,6 C 100 % 1004,4 hPa 0,0 l/m 0 min 0 min 0 W/m 3,2 km/h (1 Bft) 100,00 %
12.12.2020 23:30 7,9 C 7,2 C 6,6 C 100 % 1004,4 hPa 0,0 l/m 0 min 0 min 0 W/m 16,1 km/h (3 Bft) 100,00 %
12.12.2020 23:32 7,9 C 7,2 C 6,6 C 100 % 1004,5 hPa 0,0 l/m 0 min 0 min 0 W/m 16,1 km/h (3 Bft) 100,00 %
12.12.2020 23:34 7,9 C 7,2 C 6,6 C 100 % 1004,5 hPa 0,0 l/m 0 min 2 min 0 W/m 0,0 km/h (0 Bft) 100,00 %
12.12.2020 23:36 7,8 C 7,2 C 6,6 C 100 % 1004,5 hPa 0,0 l/m 0 min 2 min 0 W/m 12,9 km/h (3 Bft) 97,87 %
12.12.2020 23:38 7,8 C 7,2 C 6,6 C 100 % 1004,5 hPa 0,2 l/m 0 min 2 min 0 W/m 6,4 km/h (2 Bft) 100,00 %
12.12.2020 23:40 7,8 C 7,2 C 6,6 C 100 % 1004,5 hPa 0,0 l/m 0 min 2 min 0 W/m 16,1 km/h (3 Bft) 100,00 %
12.12.2020 23:42 7,8 C 7,2 C 6,6 C 100 % 1004,5 hPa 0,0 l/m 0 min 0 min 0 W/m 12,9 km/h (3 Bft) 97,87 %
12.12.2020 23:44 7,8 C 7,2 C 6,6 C 100 % 1004,5 hPa 0,0 l/m 0 min 0 min 0 W/m 16,1 km/h (3 Bft) 100,00 %
12.12.2020 23:46 7,8 C 7,2 C 6,6 C 100 % 1004,6 hPa 0,0 l/m 0 min 0 min 0 W/m 0,0 km/h (0 Bft) 100,00 %
12.12.2020 23:48 7,8 C 7,2 C 6,6 C 100 % 1004,6 hPa 0,0 l/m 0 min 0 min 0 W/m 16,1 km/h (3 Bft) 100,00 %
12.12.2020 23:50 7,8 C 7,2 C 6,6 C 100 % 1004,6 hPa 0,0 l/m 0 min 0 min 0 W/m 6,4 km/h (2 Bft) 100,00 %
12.12.2020 23:52 7,8 C 7,2 C 6,6 C 100 % 1004,6 hPa 0,0 l/m 0 min 0 min 0 W/m 3,2 km/h (1 Bft) 97,87 %
12.12.2020 23:54 7,8 C 7,2 C 6,6 C 100 % 1004,7 hPa 0,0 l/m 0 min 0 min 0 W/m 0,0 km/h (0 Bft) 100,00 %
12.12.2020 23:56 7,8 C 7,2 C 6,6 C 100 % 1004,7 hPa 0,0 l/m 0 min 2 min 0 W/m 0,0 km/h (0 Bft) 100,00 %
12.12.2020 23:58 7,8 C 7,2 C 6,6 C 100 % 1004,7 hPa 0,2 l/m 0 min 2 min 0 W/m 0,0 km/h (0 Bft) 97,87 %
_ Min-Zeit 00:00 00:00 00:00 02:18 00:00 - - - - 00:28 04:52
Minimum _ 3,7 C 3,3 C 2,2 C 97 % 991,6 hPa - - - - 0,0 km/h (0 Bft) 56,52 %
_ Max-Zeit 21:30 20:22 20:12 11:04 23:54 05:48 00:00 06:08 12:38 05:12 00:00
Maximum _ 7,9 C 7,2 C 6,6 C 100 % 1004,7 hPa 0,2 l/m 0 min 4 min 79 W/m 22,5 km/h
S-SO (4 Bft)
100,00 %
Durchschnitt _ 6,0 C 5,4 C 4,8 C 99 % 997,5 hPa #2,8 l/m #0 min. #3:36 h 30 W/m 4,7 km/h (1 Bft) 97,51 %
© 2020 W. Hausmann